Wetterdaten: Donnerstag, 23.10.2014
Datum Zeit Temp. Aussen +5cm Feuchte Auss Luftdruck Regen Sonnenschein Regendauer Solar Windben
23.10.2014 00:00 9,2 C 8,3 C 92 % 1022,2 hPa 0,0 l/m 0 min 0 min 0 W/m 10,5 km/h (2 Bft)
23.10.2014 00:02 9,2 C 8,3 C 92 % 1022,1 hPa 0,0 l/m 0 min 0 min 0 W/m 6,3 km/h (2 Bft)
23.10.2014 00:05 9,2 C 8,3 C 92 % 1022,2 hPa 0,0 l/m 0 min 0 min 0 W/m 8,4 km/h (2 Bft)
23.10.2014 00:06 9,2 C 8,3 C 92 % 1022,2 hPa 0,0 l/m 0 min 0 min 0 W/m 6,3 km/h (2 Bft)
23.10.2014 00:08 9,2 C 8,3 C 92 % 1022,2 hPa 0,0 l/m 0 min 0 min 0 W/m 8,4 km/h (2 Bft)
23.10.2014 00:10 9,2 C 8,3 C 92 % 1022,1 hPa 0,0 l/m 0 min 0 min 0 W/m 12,6 km/h (3 Bft)
23.10.2014 00:12 9,2 C 8,3 C 92 % 1022,2 hPa 0,0 l/m 0 min 0 min 0 W/m 8,4 km/h (2 Bft)
23.10.2014 00:14 9,2 C 8,3 C 92 % 1022,2 hPa 0,0 l/m 0 min 0 min 0 W/m 8,4 km/h (2 Bft)
23.10.2014 00:16 9,2 C 8,3 C 92 % 1022,2 hPa 0,0 l/m 0 min 0 min 0 W/m 8,4 km/h (2 Bft)
23.10.2014 00:18 9,2 C 8,3 C 92 % 1022,2 hPa 0,0 l/m 0 min 0 min 0 W/m 8,4 km/h (2 Bft)
23.10.2014 00:20 9,2 C 8,3 C 92 % 1022,2 hPa 0,0 l/m 0 min 0 min 0 W/m 8,4 km/h (2 Bft)
23.10.2014 00:22 9,2 C 8,3 C 92 % 1022,2 hPa 0,0 l/m 0 min 0 min 0 W/m 6,3 km/h (2 Bft)
23.10.2014 00:24 9,2 C 8,3 C 92 % 1022,2 hPa 0,0 l/m 0 min 0 min 0 W/m 4,2 km/h (1 Bft)
23.10.2014 00:26 9,2 C 8,3 C 92 % 1022,2 hPa 0,0 l/m 0 min 0 min 0 W/m 4,2 km/h (1 Bft)
23.10.2014 00:28 9,2 C 8,3 C 92 % 1022,2 hPa 0,0 l/m 0 min 0 min 0 W/m 6,3 km/h (2 Bft)
23.10.2014 00:30 9,2 C 8,3 C 92 % 1022,2 hPa 0,0 l/m 0 min 0 min 0 W/m 10,5 km/h (2 Bft)
23.10.2014 00:32 9,2 C 8,3 C 93 % 1022,2 hPa 0,0 l/m 0 min 0 min 0 W/m 10,5 km/h (2 Bft)
23.10.2014 00:34 9,2 C 8,3 C 93 % 1022,2 hPa 0,0 l/m 0 min 0 min 0 W/m 6,3 km/h (2 Bft)
23.10.2014 00:36 9,2 C 7,8 C 93 % 1022,2 hPa 0,0 l/m 0 min 0 min 0 W/m 8,4 km/h (2 Bft)
23.10.2014 00:38 9,2 C 7,8 C 93 % 1022,2 hPa 0,0 l/m 0 min 0 min 0 W/m 6,3 km/h (2 Bft)
23.10.2014 00:40 9,2 C 7,8 C 93 % 1022,2 hPa 0,0 l/m 0 min 0 min 0 W/m 8,4 km/h (2 Bft)
23.10.2014 00:42 9,2 C 7,8 C 92 % 1022,1 hPa 0,0 l/m 0 min 0 min 0 W/m 6,3 km/h (2 Bft)
23.10.2014 00:44 9,2 C 7,8 C 92 % 1022,1 hPa 0,0 l/m 0 min 0 min 0 W/m 10,5 km/h (2 Bft)
23.10.2014 00:46 9,1 C 7,8 C 92 % 1022,1 hPa 0,0 l/m 0 min 0 min 0 W/m 6,3 km/h (2 Bft)
23.10.2014 00:48 9,1 C 7,8 C 92 % 1022,1 hPa 0,0 l/m 0 min 0 min 0 W/m 8,4 km/h (2 Bft)
23.10.2014 00:50 9,1 C 7,8 C 92 % 1022,1 hPa 0,0 l/m 0 min 0 min 0 W/m 10,5 km/h (2 Bft)
23.10.2014 00:52 9,1 C 7,2 C 92 % 1022,1 hPa 0,0 l/m 0 min 0 min 0 W/m 12,6 km/h (3 Bft)
23.10.2014 00:54 9,0 C 7,2 C 92 % 1022,1 hPa 0,0 l/m 0 min 0 min 0 W/m 8,4 km/h (2 Bft)
23.10.2014 00:56 9,0 C 7,2 C 92 % 1022,0 hPa 0,0 l/m 0 min 0 min 0 W/m 10,5 km/h (2 Bft)
23.10.2014 00:58 8,9 C 7,2 C 92 % 1022,1 hPa 0,0 l/m 0 min 0 min 0 W/m 8,4 km/h (2 Bft)
23.10.2014 01:00 8,9 C 7,2 C 92 % 1022,1 hPa 0,0 l/m 0 min 0 min 0 W/m 8,4 km/h (2 Bft)
23.10.2014 01:02 8,9 C 7,2 C 92 % 1022,1 hPa 0,0 l/m 0 min 0 min 0 W/m 12,6 km/h (3 Bft)
23.10.2014 01:04 8,9 C 7,2 C 92 % 1022,1 hPa 0,0 l/m 0 min 0 min 0 W/m 12,6 km/h (3 Bft)
23.10.2014 01:06 8,8 C 7,2 C 92 % 1022,1 hPa 0,0 l/m 0 min 0 min 0 W/m 10,5 km/h (2 Bft)
23.10.2014 01:08 8,8 C 7,2 C 92 % 1022,1 hPa 0,0 l/m 0 min 0 min 0 W/m 10,5 km/h (2 Bft)
23.10.2014 01:10 8,8 C 7,2 C 92 % 1022,2 hPa 0,0 l/m 0 min 0 min 0 W/m 8,4 km/h (2 Bft)
23.10.2014 01:12 8,7 C 7,2 C 92 % 1022,2 hPa 0,0 l/m 0 min 0 min 0 W/m 10,5 km/h (2 Bft)
23.10.2014 01:14 8,7 C 7,2 C 92 % 1022,1 hPa 0,0 l/m 0 min 0 min 0 W/m 10,5 km/h (2 Bft)
23.10.2014 01:16 8,7 C 7,2 C 92 % 1022,2 hPa 0,0 l/m 0 min 0 min 0 W/m 6,3 km/h (2 Bft)
23.10.2014 01:18 8,7 C 7,2 C 92 % 1022,2 hPa 0,0 l/m 0 min 0 min 0 W/m 8,4 km/h (2 Bft)
23.10.2014 01:20 8,6 C 7,2 C 92 % 1022,2 hPa 0,0 l/m 0 min 0 min 0 W/m 6,3 km/h (2 Bft)
23.10.2014 01:22 8,6 C 7,2 C 92 % 1022,2 hPa 0,0 l/m 0 min 0 min 0 W/m 6,3 km/h (2 Bft)
23.10.2014 01:24 8,6 C 7,2 C 92 % 1022,2 hPa 0,0 l/m 0 min 0 min 0 W/m 8,4 km/h (2 Bft)
23.10.2014 01:26 8,5 C 7,2 C 92 % 1022,1 hPa 0,0 l/m 0 min 0 min 0 W/m 8,4 km/h (2 Bft)
23.10.2014 01:28 8,5 C 6,7 C 92 % 1022,1 hPa 0,0 l/m 0 min 0 min 0 W/m 8,4 km/h (2 Bft)
23.10.2014 01:30 8,5 C 6,7 C 92 % 1022,2 hPa 0,0 l/m 0 min 0 min 0 W/m 4,2 km/h (1 Bft)
23.10.2014 01:32 8,4 C 6,7 C 92 % 1022,2 hPa 0,0 l/m 0 min 0 min 0 W/m 8,4 km/h (2 Bft)
23.10.2014 01:34 8,4 C 6,7 C 92 % 1022,2 hPa 0,0 l/m 0 min 0 min 0 W/m 6,3 km/h (2 Bft)
23.10.2014 01:36 8,4 C 6,7 C 92 % 1022,2 hPa 0,0 l/m 0 min 0 min 0 W/m 8,4 km/h (2 Bft)
23.10.2014 01:38 8,4 C 6,7 C 92 % 1022,1 hPa 0,0 l/m 0 min 0 min 0 W/m 6,3 km/h (2 Bft)
23.10.2014 01:40 8,3 C 6,7 C 92 % 1022,2 hPa 0,0 l/m 0 min 0 min 0 W/m 6,3 km/h (2 Bft)
23.10.2014 01:42 8,3 C 6,7 C 92 % 1022,2 hPa 0,0 l/m 0 min 0 min 0 W/m 12,6 km/h (3 Bft)
23.10.2014 01:44 8,3 C 6,7 C 92 % 1022,2 hPa 0,0 l/m 0 min 0 min 0 W/m 8,4 km/h (2 Bft)
23.10.2014 01:46 8,3 C 6,7 C 92 % 1022,3 hPa 0,0 l/m 0 min 0 min 0 W/m 8,4 km/h (2 Bft)
23.10.2014 01:48 8,2 C 6,7 C 92 % 1022,3 hPa 0,0 l/m 0 min 0 min 0 W/m 8,4 km/h (2 Bft)
23.10.2014 01:50 8,2 C 6,7 C 92 % 1022,3 hPa 0,0 l/m 0 min 0 min 0 W/m 6,3 km/h (2 Bft)
23.10.2014 01:52 8,2 C 6,7 C 92 % 1022,3 hPa 0,0 l/m 0 min 0 min 0 W/m 8,4 km/h (2 Bft)
23.10.2014 01:54 8,2 C 6,7 C 92 % 1022,4 hPa 0,0 l/m 0 min 0 min 0 W/m 6,3 km/h (2 Bft)
23.10.2014 01:56 8,2 C 6,7 C 92 % 1022,4 hPa 0,0 l/m 0 min 0 min 0 W/m 10,5 km/h (2 Bft)
23.10.2014 01:58 8,2 C 6,7 C 92 % 1022,5 hPa 0,0 l/m 0 min 0 min 0 W/m 10,5 km/h (2 Bft)
23.10.2014 02:00 8,2 C 7,2 C 92 % 1022,5 hPa 0,0 l/m 0 min 0 min 0 W/m 10,5 km/h (2 Bft)
23.10.2014 02:02 8,2 C 7,2 C 92 % 1022,6 hPa 0,0 l/m 0 min 0 min 0 W/m 8,4 km/h (2 Bft)
23.10.2014 02:04 8,2 C 7,2 C 93 % 1022,5 hPa 0,0 l/m 0 min 0 min 0 W/m 8,4 km/h (2 Bft)
23.10.2014 02:06 8,1 C 7,2 C 93 % 1022,5 hPa 0,0 l/m 0 min 0 min 0 W/m 8,4 km/h (2 Bft)
23.10.2014 02:08 8,1 C 7,2 C 93 % 1022,5 hPa 0,0 l/m 0 min 0 min 0 W/m 10,5 km/h (2 Bft)
23.10.2014 02:10 8,1 C 7,2 C 93 % 1022,6 hPa 0,0 l/m 0 min 0 min 0 W/m 8,4 km/h (2 Bft)
23.10.2014 02:12 8,1 C 7,2 C 93 % 1022,6 hPa 0,0 l/m 0 min 0 min 0 W/m 10,5 km/h (2 Bft)
23.10.2014 02:14 8,1 C 7,2 C 93 % 1022,6 hPa 0,0 l/m 0 min 0 min 0 W/m 8,4 km/h (2 Bft)
23.10.2014 02:16 8,1 C 7,2 C 93 % 1022,6 hPa 0,0 l/m 0 min 0 min 0 W/m 10,5 km/h (2 Bft)
23.10.2014 02:18 8,1 C 7,2 C 93 % 1022,6 hPa 0,0 l/m 0 min 0 min 0 W/m 10,5 km/h (2 Bft)
23.10.2014 02:20 8,1 C 7,2 C 93 % 1022,6 hPa 0,0 l/m 0 min 0 min 0 W/m 12,6 km/h (3 Bft)
23.10.2014 02:22 8,2 C 7,2 C 93 % 1022,5 hPa 0,0 l/m 0 min 0 min 0 W/m 12,6 km/h (3 Bft)
23.10.2014 02:24 8,2 C 7,2 C 93 % 1022,6 hPa 0,0 l/m 0 min 0 min 0 W/m 12,6 km/h (3 Bft)
23.10.2014 02:26 8,2 C 7,2 C 93 % 1022,6 hPa 0,0 l/m 0 min 0 min 0 W/m 12,6 km/h (3 Bft)
23.10.2014 02:28 8,2 C 7,2 C 93 % 1022,7 hPa 0,0 l/m 0 min 0 min 0 W/m 10,5 km/h (2 Bft)
23.10.2014 02:30 8,2 C 7,2 C 94 % 1022,7 hPa 0,0 l/m 0 min 0 min 0 W/m 12,6 km/h (3 Bft)
23.10.2014 02:32 8,2 C 7,8 C 94 % 1022,6 hPa 0,0 l/m 0 min 0 min 0 W/m 10,5 km/h (2 Bft)
23.10.2014 02:34 8,3 C 7,8 C 94 % 1022,6 hPa 0,0 l/m 0 min 0 min 0 W/m 12,6 km/h (3 Bft)
23.10.2014 02:36 8,3 C 7,8 C 94 % 1022,6 hPa 0,0 l/m 0 min 0 min 0 W/m 10,5 km/h (2 Bft)
23.10.2014 02:38 8,3 C 7,8 C 94 % 1022,6 hPa 0,0 l/m 0 min 0 min 0 W/m 14,6 km/h (3 Bft)
23.10.2014 02:40 8,3 C 7,8 C 94 % 1022,7 hPa 0,0 l/m 0 min 0 min 0 W/m 12,6 km/h (3 Bft)
23.10.2014 02:42 8,4 C 7,8 C 94 % 1022,7 hPa 0,0 l/m 0 min 0 min 0 W/m 16,7 km/h (3 Bft)
23.10.2014 02:44 8,4 C 7,8 C 94 % 1022,6 hPa 0,0 l/m 0 min 0 min 0 W/m 12,6 km/h (3 Bft)
23.10.2014 02:46 8,4 C 7,8 C 94 % 1022,5 hPa 0,0 l/m 0 min 0 min 0 W/m 16,7 km/h (3 Bft)
23.10.2014 02:48 8,4 C 7,8 C 94 % 1022,5 hPa 0,0 l/m 0 min 0 min 0 W/m 18,8 km/h (3 Bft)
23.10.2014 02:50 8,4 C 7,8 C 94 % 1022,5 hPa 0,0 l/m 0 min 0 min 0 W/m 10,5 km/h (2 Bft)
23.10.2014 02:52 8,4 C 7,8 C 94 % 1022,6 hPa 0,0 l/m 0 min 0 min 0 W/m 14,6 km/h (3 Bft)
23.10.2014 02:54 8,4 C 7,8 C 94 % 1022,7 hPa 0,0 l/m 0 min 0 min 0 W/m 10,5 km/h (2 Bft)
23.10.2014 02:56 8,5 C 7,8 C 94 % 1022,7 hPa 0,0 l/m 0 min 0 min 0 W/m 10,5 km/h (2 Bft)
23.10.2014 02:58 8,5 C 7,8 C 94 % 1022,7 hPa 0,0 l/m 0 min 0 min 0 W/m 10,5 km/h (2 Bft)
23.10.2014 03:00 8,5 C 7,8 C 94 % 1022,7 hPa 0,0 l/m 0 min 0 min 0 W/m 4,2 km/h (1 Bft)
23.10.2014 03:02 8,5 C 7,8 C 94 % 1022,6 hPa 0,0 l/m 0 min 0 min 0 W/m 6,3 km/h (2 Bft)
23.10.2014 03:04 8,5 C 7,8 C 94 % 1022,6 hPa 0,0 l/m 0 min 0 min 0 W/m 6,3 km/h (2 Bft)
23.10.2014 03:06 8,5 C 7,8 C 94 % 1022,6 hPa 0,0 l/m 0 min 0 min 0 W/m 8,4 km/h (2 Bft)
23.10.2014 03:08 8,5 C 7,8 C 94 % 1022,6 hPa 0,0 l/m 0 min 0 min 0 W/m 12,6 km/h (3 Bft)
23.10.2014 03:10 8,6 C 7,8 C 94 % 1022,6 hPa 0,0 l/m 0 min 0 min 0 W/m 8,4 km/h (2 Bft)
23.10.2014 03:12 8,6 C 7,8 C 94 % 1022,6 hPa 0,0 l/m 0 min 0 min 0 W/m 8,4 km/h (2 Bft)
23.10.2014 03:14 8,6 C 7,8 C 94 % 1022,6 hPa 0,0 l/m 0 min 0 min 0 W/m 12,6 km/h (3 Bft)
23.10.2014 03:16 8,6 C 7,8 C 94 % 1022,7 hPa 0,0 l/m 0 min 0 min 0 W/m 10,5 km/h (2 Bft)
23.10.2014 03:18 8,6 C 7,8 C 94 % 1022,6 hPa 0,0 l/m 0 min 0 min 0 W/m 12,6 km/h (3 Bft)
23.10.2014 03:20 8,6 C 7,8 C 94 % 1022,7 hPa 0,0 l/m 0 min 0 min 0 W/m 12,6 km/h (3 Bft)
23.10.2014 03:22 8,6 C 7,8 C 94 % 1022,6 hPa 0,0 l/m 0 min 0 min 0 W/m 4,2 km/h (1 Bft)
23.10.2014 03:24 8,6 C 7,8 C 94 % 1022,6 hPa 0,0 l/m 0 min 0 min 0 W/m 4,2 km/h (1 Bft)
23.10.2014 03:26 8,6 C 7,8 C 94 % 1022,6 hPa 0,0 l/m 0 min 0 min 0 W/m 6,3 km/h (2 Bft)
23.10.2014 03:28 8,6 C 7,8 C 94 % 1022,6 hPa 0,0 l/m 0 min 0 min 0 W/m 6,3 km/h (2 Bft)
23.10.2014 03:30 8,6 C 7,8 C 94 % 1022,7 hPa 0,0 l/m 0 min 0 min 0 W/m 6,3 km/h (2 Bft)
23.10.2014 03:32 8,6 C 7,8 C 94 % 1022,6 hPa 0,0 l/m 0 min 0 min 0 W/m 4,2 km/h (1 Bft)
23.10.2014 03:34 8,6 C 7,8 C 94 % 1022,6 hPa 0,0 l/m 0 min 0 min 0 W/m 2,1 km/h (1 Bft)
23.10.2014 03:36 8,6 C 7,8 C 94 % 1022,6 hPa 0,0 l/m 0 min 0 min 0 W/m 4,2 km/h (1 Bft)
23.10.2014 03:38 8,7 C 7,8 C 94 % 1022,6 hPa 0,0 l/m 0 min 0 min 0 W/m 4,2 km/h (1 Bft)
23.10.2014 03:40 8,7 C 7,8 C 94 % 1022,6 hPa 0,0 l/m 0 min 0 min 0 W/m 4,2 km/h (1 Bft)
23.10.2014 03:42 8,7 C 7,8 C 94 % 1022,5 hPa 0,0 l/m 0 min 0 min 0 W/m 6,3 km/h (2 Bft)
23.10.2014 03:44 8,7 C 7,8 C 94 % 1022,6 hPa 0,0 l/m 0 min 0 min 0 W/m 6,3 km/h (2 Bft)
23.10.2014 03:46 8,7 C 7,8 C 94 % 1022,5 hPa 0,0 l/m 0 min 0 min 0 W/m 6,3 km/h (2 Bft)
23.10.2014 03:48 8,7 C 7,8 C 94 % 1022,6 hPa 0,0 l/m 0 min 0 min 0 W/m 4,2 km/h (1 Bft)
23.10.2014 03:50 8,7 C 7,8 C 94 % 1022,6 hPa 0,0 l/m 0 min 0 min 0 W/m 8,4 km/h (2 Bft)
23.10.2014 03:52 8,7 C 7,8 C 94 % 1022,6 hPa 0,0 l/m 0 min 0 min 0 W/m 8,4 km/h (2 Bft)
23.10.2014 03:54 8,7 C 7,8 C 94 % 1022,7 hPa 0,0 l/m 0 min 0 min 0 W/m 6,3 km/h (2 Bft)
23.10.2014 03:56 8,7 C 7,8 C 94 % 1022,6 hPa 0,0 l/m 0 min 0 min 0 W/m 6,3 km/h (2 Bft)
23.10.2014 03:58 8,7 C 7,8 C 94 % 1022,6 hPa 0,0 l/m 0 min 0 min 0 W/m 12,6 km/h (3 Bft)
23.10.2014 04:00 8,7 C 7,8 C 94 % 1022,6 hPa 0,0 l/m 0 min 0 min 0 W/m 12,6 km/h (3 Bft)
23.10.2014 04:02 8,7 C 7,8 C 94 % 1022,5 hPa 0,0 l/m 0 min 0 min 0 W/m 4,2 km/h (1 Bft)
23.10.2014 04:04 8,7 C 7,8 C 94 % 1022,5 hPa 0,0 l/m 0 min 0 min 0 W/m 10,5 km/h (2 Bft)
23.10.2014 04:06 8,7 C 7,8 C 94 % 1022,5 hPa 0,0 l/m 0 min 0 min 0 W/m 10,5 km/h (2 Bft)
23.10.2014 04:08 8,7 C 7,8 C 94 % 1022,5 hPa 0,0 l/m 0 min 0 min 0 W/m 10,5 km/h (2 Bft)
23.10.2014 04:10 8,7 C 7,8 C 94 % 1022,4 hPa 0,0 l/m 0 min 0 min 0 W/m 6,3 km/h (2 Bft)
23.10.2014 04:12 8,7 C 7,8 C 94 % 1022,4 hPa 0,0 l/m 0 min 0 min 0 W/m 10,5 km/h (2 Bft)
23.10.2014 04:14 8,7 C 7,8 C 94 % 1022,4 hPa 0,0 l/m 0 min 0 min 0 W/m 10,5 km/h (2 Bft)
23.10.2014 04:16 8,7 C 7,8 C 94 % 1022,3 hPa 0,0 l/m 0 min 0 min 0 W/m 12,6 km/h (3 Bft)
23.10.2014 04:18 8,7 C 7,8 C 94 % 1022,3 hPa 0,0 l/m 0 min 0 min 0 W/m 8,4 km/h (2 Bft)
23.10.2014 04:20 8,7 C 7,8 C 94 % 1022,3 hPa 0,0 l/m 0 min 0 min 0 W/m 6,3 km/h (2 Bft)
23.10.2014 04:22 8,7 C 7,8 C 94 % 1022,3 hPa 0,0 l/m 0 min 0 min 0 W/m 10,5 km/h (2 Bft)
23.10.2014 04:24 8,7 C 7,8 C 94 % 1022,3 hPa 0,0 l/m 0 min 0 min 0 W/m 8,4 km/h (2 Bft)
23.10.2014 04:26 8,7 C 7,8 C 94 % 1022,3 hPa 0,0 l/m 0 min 0 min 0 W/m 8,4 km/h (2 Bft)
23.10.2014 04:28 8,7 C 7,8 C 94 % 1022,3 hPa 0,0 l/m 0 min 0 min 0 W/m 10,5 km/h (2 Bft)
23.10.2014 04:30 8,7 C 7,8 C 94 % 1022,3 hPa 0,0 l/m 0 min 0 min 0 W/m 8,4 km/h (2 Bft)
23.10.2014 04:32 8,7 C 7,8 C 94 % 1022,4 hPa 0,0 l/m 0 min 0 min 0 W/m 4,2 km/h (1 Bft)
23.10.2014 04:34 8,7 C 7,8 C 94 % 1022,3 hPa 0,0 l/m 0 min 0 min 0 W/m 4,2 km/h (1 Bft)
23.10.2014 04:36 8,7 C 7,8 C 94 % 1022,3 hPa 0,0 l/m 0 min 0 min 0 W/m 8,4 km/h (2 Bft)
23.10.2014 04:38 8,7 C 7,8 C 94 % 1022,2 hPa 0,0 l/m 0 min 0 min 0 W/m 6,3 km/h (2 Bft)
23.10.2014 04:40 8,8 C 7,8 C 94 % 1022,2 hPa 0,0 l/m 0 min 0 min 0 W/m 8,4 km/h (2 Bft)
23.10.2014 04:42 8,8 C 7,8 C 94 % 1022,2 hPa 0,0 l/m 0 min 0 min 0 W/m 12,6 km/h (3 Bft)
23.10.2014 04:44 8,8 C 7,8 C 94 % 1022,1 hPa 0,0 l/m 0 min 0 min 0 W/m 10,5 km/h (2 Bft)
23.10.2014 04:46 8,8 C 7,8 C 94 % 1022,1 hPa 0,0 l/m 0 min 0 min 0 W/m 10,5 km/h (2 Bft)
23.10.2014 04:48 8,8 C 7,8 C 94 % 1022,0 hPa 0,0 l/m 0 min 0 min 0 W/m 8,4 km/h (2 Bft)
23.10.2014 04:50 8,8 C 8,3 C 94 % 1022,1 hPa 0,0 l/m 0 min 0 min 0 W/m 10,5 km/h (2 Bft)
23.10.2014 04:52 8,8 C 8,3 C 94 % 1022,1 hPa 0,0 l/m 0 min 0 min 0 W/m 10,5 km/h (2 Bft)
23.10.2014 04:54 8,8 C 8,3 C 94 % 1022,0 hPa 0,0 l/m 0 min 0 min 0 W/m 12,6 km/h (3 Bft)
23.10.2014 04:56 8,8 C 7,8 C 94 % 1022,0 hPa 0,0 l/m 0 min 0 min 0 W/m 8,4 km/h (2 Bft)
23.10.2014 04:58 8,8 C 7,8 C 94 % 1022,0 hPa 0,0 l/m 0 min 0 min 0 W/m 8,4 km/h (2 Bft)
23.10.2014 05:00 8,8 C 7,8 C 94 % 1022,0 hPa 0,0 l/m 0 min 0 min 0 W/m 8,4 km/h (2 Bft)
23.10.2014 05:02 8,8 C 7,8 C 94 % 1022,0 hPa 0,0 l/m 0 min 0 min 0 W/m 8,4 km/h (2 Bft)
23.10.2014 05:04 8,8 C 7,8 C 94 % 1022,0 hPa 0,0 l/m 0 min 0 min 0 W/m 8,4 km/h (2 Bft)
23.10.2014 05:06 8,9 C 8,3 C 94 % 1022,0 hPa 0,0 l/m 0 min 0 min 0 W/m 8,4 km/h (2 Bft)
23.10.2014 05:08 8,9 C 8,3 C 94 % 1021,9 hPa 0,0 l/m 0 min 0 min 0 W/m 6,3 km/h (2 Bft)
23.10.2014 05:10 8,9 C 7,8 C 94 % 1021,9 hPa 0,0 l/m 0 min 0 min 0 W/m 6,3 km/h (2 Bft)
23.10.2014 05:12 8,9 C 7,8 C 94 % 1022,0 hPa 0,0 l/m 0 min 0 min 0 W/m 6,3 km/h (2 Bft)
23.10.2014 05:14 8,9 C 7,8 C 94 % 1022,0 hPa 0,0 l/m 0 min 0 min 0 W/m 12,6 km/h (3 Bft)
23.10.2014 05:16 8,9 C 8,3 C 94 % 1022,0 hPa 0,0 l/m 0 min 0 min 0 W/m 10,5 km/h (2 Bft)
23.10.2014 05:18 8,9 C 8,3 C 94 % 1022,0 hPa 0,0 l/m 0 min 0 min 0 W/m 10,5 km/h (2 Bft)
23.10.2014 05:20 8,9 C 8,3 C 94 % 1022,0 hPa 0,0 l/m 0 min 0 min 0 W/m 8,4 km/h (2 Bft)
23.10.2014 05:22 8,9 C 8,3 C 94 % 1022,0 hPa 0,0 l/m 0 min 0 min 0 W/m 10,5 km/h (2 Bft)
23.10.2014 05:24 8,9 C 7,8 C 94 % 1022,0 hPa 0,0 l/m 0 min 0 min 0 W/m 8,4 km/h (2 Bft)
23.10.2014 05:26 8,9 C 7,8 C 94 % 1022,0 hPa 0,0 l/m 0 min 0 min 0 W/m 10,5 km/h (2 Bft)
23.10.2014 05:28 8,9 C 7,8 C 94 % 1022,0 hPa 0,0 l/m 0 min 0 min 0 W/m 10,5 km/h (2 Bft)
23.10.2014 05:30 8,9 C 8,3 C 94 % 1022,0 hPa 0,0 l/m 0 min 0 min 0 W/m 12,6 km/h (3 Bft)
23.10.2014 05:32 8,9 C 8,3 C 94 % 1022,0 hPa 0,0 l/m 0 min 0 min 0 W/m 10,5 km/h (2 Bft)
23.10.2014 05:34 8,9 C 8,3 C 94 % 1021,9 hPa 0,0 l/m 0 min 0 min 0 W/m 10,5 km/h (2 Bft)
23.10.2014 05:36 8,9 C 8,3 C 94 % 1022,0 hPa 0,0 l/m 0 min 0 min 0 W/m 10,5 km/h (2 Bft)
23.10.2014 05:38 8,9 C 8,3 C 94 % 1022,0 hPa 0,0 l/m 0 min 0 min 0 W/m 12,6 km/h (3 Bft)
23.10.2014 05:40 8,9 C 8,3 C 94 % 1021,9 hPa 0,0 l/m 0 min 0 min 0 W/m 8,4 km/h (2 Bft)
23.10.2014 05:42 8,9 C 8,3 C 94 % 1021,9 hPa 0,0 l/m 0 min 0 min 0 W/m 10,5 km/h (2 Bft)
23.10.2014 05:44 8,9 C 8,3 C 94 % 1021,9 hPa 0,0 l/m 0 min 0 min 0 W/m 6,3 km/h (2 Bft)
23.10.2014 05:46 8,9 C 8,3 C 94 % 1021,9 hPa 0,0 l/m 0 min 0 min 0 W/m 6,3 km/h (2 Bft)
23.10.2014 05:48 8,9 C 8,3 C 94 % 1021,9 hPa 0,0 l/m 0 min 0 min 0 W/m 8,4 km/h (2 Bft)
23.10.2014 05:50 8,9 C 8,3 C 94 % 1022,0 hPa 0,0 l/m 0 min 0 min 0 W/m 6,3 km/h (2 Bft)
23.10.2014 05:52 8,9 C 8,3 C 94 % 1022,1 hPa 0,0 l/m 0 min 0 min 0 W/m 10,5 km/h (2 Bft)
23.10.2014 05:54 8,9 C 8,3 C 94 % 1022,1 hPa 0,0 l/m 0 min 0 min 0 W/m 8,4 km/h (2 Bft)
23.10.2014 05:56 8,9 C 8,3 C 94 % 1022,1 hPa 0,0 l/m 0 min 0 min 0 W/m 6,3 km/h (2 Bft)
23.10.2014 05:58 8,9 C 8,3 C 94 % 1022,0 hPa 0,0 l/m 0 min 0 min 0 W/m 6,3 km/h (2 Bft)
23.10.2014 06:00 8,9 C 8,3 C 94 % 1022,0 hPa 0,0 l/m 0 min 0 min 0 W/m 6,3 km/h (2 Bft)
23.10.2014 06:02 8,9 C 8,3 C 94 % 1022,0 hPa 0,0 l/m 0 min 0 min 0 W/m 10,5 km/h (2 Bft)
23.10.2014 06:05 8,9 C 8,3 C 94 % 1022,0 hPa 0,0 l/m 0 min 0 min 0 W/m 10,5 km/h (2 Bft)
23.10.2014 06:06 8,9 C 8,3 C 94 % 1022,0 hPa 0,0 l/m 0 min 0 min 0 W/m 6,3 km/h (2 Bft)
23.10.2014 06:08 8,9 C 8,3 C 94 % 1022,0 hPa 0,0 l/m 0 min 0 min 0 W/m 8,4 km/h (2 Bft)
23.10.2014 06:10 8,9 C 8,3 C 94 % 1022,0 hPa 0,0 l/m 0 min 0 min 0 W/m 10,5 km/h (2 Bft)
23.10.2014 06:12 8,9 C 8,3 C 94 % 1022,0 hPa 0,0 l/m 0 min 0 min 0 W/m 6,3 km/h (2 Bft)
23.10.2014 06:14 8,9 C 8,3 C 94 % 1021,9 hPa 0,0 l/m 0 min 0 min 0 W/m 8,4 km/h (2 Bft)
23.10.2014 06:16 8,9 C 8,3 C 94 % 1022,0 hPa 0,0 l/m 0 min 0 min 0 W/m 8,4 km/h (2 Bft)
23.10.2014 06:18 8,9 C 8,3 C 94 % 1022,0 hPa 0,0 l/m 0 min 0 min 0 W/m 6,3 km/h (2 Bft)
23.10.2014 06:20 8,9 C 8,3 C 94 % 1022,0 hPa 0,0 l/m 0 min 0 min 0 W/m 8,4 km/h (2 Bft)
23.10.2014 06:22 8,9 C 8,3 C 94 % 1022,0 hPa 0,0 l/m 0 min 0 min 0 W/m 6,3 km/h (2 Bft)
23.10.2014 06:24 8,9 C 8,3 C 94 % 1021,9 hPa 0,0 l/m 0 min 0 min 0 W/m 10,5 km/h (2 Bft)
23.10.2014 06:26 8,9 C 7,8 C 94 % 1022,0 hPa 0,0 l/m 0 min 0 min 0 W/m 6,3 km/h (2 Bft)
23.10.2014 06:28 8,9 C 7,8 C 94 % 1021,9 hPa 0,0 l/m 0 min 0 min 0 W/m 6,3 km/h (2 Bft)
23.10.2014 06:30 8,9 C 7,8 C 94 % 1022,0 hPa 0,0 l/m 0 min 0 min 0 W/m 8,4 km/h (2 Bft)
23.10.2014 06:32 8,9 C 7,8 C 94 % 1021,9 hPa 0,0 l/m 0 min 0 min 0 W/m 2,1 km/h (1 Bft)
23.10.2014 06:34 8,9 C 7,8 C 94 % 1022,0 hPa 0,0 l/m 0 min 0 min 0 W/m 4,2 km/h (1 Bft)
23.10.2014 06:36 8,9 C 7,8 C 94 % 1022,0 hPa 0,0 l/m 0 min 0 min 0 W/m 4,2 km/h (1 Bft)
23.10.2014 06:38 8,9 C 7,8 C 94 % 1022,0 hPa 0,0 l/m 0 min 0 min 0 W/m 6,3 km/h (2 Bft)
23.10.2014 06:40 8,9 C 7,8 C 94 % 1022,0 hPa 0,0 l/m 0 min 0 min 0 W/m 2,1 km/h (1 Bft)
23.10.2014 06:42 8,9 C 7,8 C 94 % 1022,1 hPa 0,0 l/m 0 min 0 min 0 W/m 2,1 km/h (1 Bft)
23.10.2014 06:44 8,9 C 7,8 C 94 % 1022,1 hPa 0,0 l/m 0 min 0 min 0 W/m 4,2 km/h (1 Bft)
23.10.2014 06:46 8,9 C 7,8 C 94 % 1022,1 hPa 0,0 l/m 0 min 0 min 0 W/m 6,3 km/h (2 Bft)
23.10.2014 06:48 8,9 C 7,8 C 94 % 1022,1 hPa 0,0 l/m 0 min 0 min 0 W/m 4,2 km/h (1 Bft)
23.10.2014 06:50 8,9 C 7,8 C 94 % 1022,2 hPa 0,0 l/m 0 min 0 min 0 W/m 4,2 km/h (1 Bft)
23.10.2014 06:52 8,9 C 7,8 C 94 % 1022,1 hPa 0,0 l/m 0 min 0 min 0 W/m 6,3 km/h (2 Bft)
23.10.2014 06:54 8,9 C 7,8 C 94 % 1022,2 hPa 0,0 l/m 0 min 0 min 0 W/m 4,2 km/h (1 Bft)
23.10.2014 06:56 8,9 C 7,8 C 94 % 1022,2 hPa 0,0 l/m 0 min 0 min 0 W/m 4,2 km/h (1 Bft)
23.10.2014 06:58 8,9 C 7,8 C 94 % 1022,2 hPa 0,0 l/m 0 min 0 min 0 W/m 4,2 km/h (1 Bft)
23.10.2014 07:00 8,9 C 7,8 C 94 % 1022,2 hPa 0,0 l/m 0 min 0 min 0 W/m 4,2 km/h (1 Bft)
23.10.2014 07:02 8,9 C 7,8 C 94 % 1022,2 hPa 0,0 l/m 0 min 0 min 0 W/m 2,1 km/h (1 Bft)
23.10.2014 07:04 8,9 C 7,8 C 94 % 1022,2 hPa 0,0 l/m 0 min 0 min 0 W/m 2,1 km/h (1 Bft)
23.10.2014 07:06 8,9 C 7,8 C 94 % 1022,2 hPa 0,0 l/m 0 min 0 min 0 W/m 2,1 km/h (1 Bft)
23.10.2014 07:08 8,9 C 7,8 C 94 % 1022,2 hPa 0,0 l/m 0 min 0 min 0 W/m 6,3 km/h (2 Bft)
23.10.2014 07:10 8,9 C 7,8 C 94 % 1022,2 hPa 0,0 l/m 0 min 0 min 0 W/m 4,2 km/h (1 Bft)
23.10.2014 07:12 8,9 C 7,8 C 94 % 1022,2 hPa 0,0 l/m 0 min 0 min 0 W/m 4,2 km/h (1 Bft)
23.10.2014 07:14 8,9 C 7,8 C 94 % 1022,3 hPa 0,0 l/m 0 min 0 min 0 W/m 2,1 km/h (1 Bft)
23.10.2014 07:16 8,9 C 7,8 C 94 % 1022,3 hPa 0,0 l/m 0 min 0 min 0 W/m 6,3 km/h (2 Bft)
23.10.2014 07:18 8,9 C 7,8 C 94 % 1022,4 hPa 0,0 l/m 0 min 0 min 0 W/m 6,3 km/h (2 Bft)
23.10.2014 07:20 8,9 C 7,8 C 94 % 1022,3 hPa 0,0 l/m 0 min 0 min 0 W/m 4,2 km/h (1 Bft)
23.10.2014 07:22 8,9 C 7,8 C 94 % 1022,3 hPa 0,0 l/m 0 min 0 min 0 W/m 6,3 km/h (2 Bft)
23.10.2014 07:24 8,9 C 7,8 C 94 % 1022,3 hPa 0,0 l/m 0 min 0 min 0 W/m 4,2 km/h (1 Bft)
23.10.2014 07:26 8,9 C 7,8 C 94 % 1022,3 hPa 0,0 l/m 0 min 0 min 0 W/m 4,2 km/h (1 Bft)
23.10.2014 07:28 8,9 C 7,8 C 94 % 1022,2 hPa 0,0 l/m 0 min 0 min 0 W/m 4,2 km/h (1 Bft)
23.10.2014 07:30 8,9 C 7,8 C 94 % 1022,3 hPa 0,0 l/m 0 min 0 min 0 W/m 4,2 km/h (1 Bft)
23.10.2014 07:32 8,9 C 7,8 C 94 % 1022,3 hPa 0,0 l/m 0 min 0 min 0 W/m 8,4 km/h (2 Bft)
23.10.2014 07:34 8,9 C 7,8 C 94 % 1022,3 hPa 0,0 l/m 0 min 0 min 0 W/m 6,3 km/h (2 Bft)
23.10.2014 07:36 8,9 C 7,8 C 94 % 1022,3 hPa 0,0 l/m 0 min 0 min 0 W/m 4,2 km/h (1 Bft)
23.10.2014 07:38 8,9 C 7,8 C 94 % 1022,4 hPa 0,0 l/m 0 min 0 min 0 W/m 4,2 km/h (1 Bft)
23.10.2014 07:40 8,9 C 7,8 C 94 % 1022,3 hPa 0,0 l/m 0 min 0 min 0 W/m 6,3 km/h (2 Bft)
23.10.2014 07:42 8,9 C 8,3 C 94 % 1022,3 hPa 0,0 l/m 0 min 0 min 0 W/m 8,4 km/h (2 Bft)
23.10.2014 07:44 8,9 C 8,3 C 94 % 1022,3 hPa 0,0 l/m 0 min 0 min 0 W/m 6,3 km/h (2 Bft)
23.10.2014 07:46 8,9 C 8,3 C 94 % 1022,3 hPa 0,0 l/m 0 min 0 min 0 W/m 6,3 km/h (2 Bft)
23.10.2014 07:48 8,9 C 8,3 C 94 % 1022,4 hPa 0,0 l/m 0 min 0 min 0 W/m 8,4 km/h (2 Bft)
23.10.2014 07:50 8,9 C 8,3 C 94 % 1022,4 hPa 0,0 l/m 0 min 0 min 0 W/m 8,4 km/h (2 Bft)
23.10.2014 07:52 8,9 C 8,3 C 94 % 1022,4 hPa 0,0 l/m 0 min 0 min 0 W/m 10,5 km/h (2 Bft)
23.10.2014 07:54 9,0 C 8,3 C 94 % 1022,4 hPa 0,0 l/m 0 min 0 min 0 W/m 10,5 km/h (2 Bft)
23.10.2014 07:56 9,0 C 8,3 C 94 % 1022,4 hPa 0,0 l/m 0 min 0 min 0 W/m 8,4 km/h (2 Bft)
23.10.2014 07:58 9,0 C 8,3 C 94 % 1022,4 hPa 0,0 l/m 0 min 0 min 0 W/m 4,2 km/h (1 Bft)
23.10.2014 08:00 9,0 C 8,3 C 94 % 1022,4 hPa 0,0 l/m 0 min 0 min 0 W/m 4,2 km/h (1 Bft)
23.10.2014 08:02 9,0 C 8,3 C 94 % 1022,6 hPa 0,0 l/m 0 min 0 min 3 W/m 10,5 km/h (2 Bft)
23.10.2014 08:04 9,0 C 8,3 C 94 % 1022,5 hPa 0,0 l/m 0 min 0 min 5 W/m 6,3 km/h (2 Bft)
23.10.2014 08:06 9,0 C 8,3 C 94 % 1022,6 hPa 0,0 l/m 0 min 0 min 5 W/m 12,6 km/h (3 Bft)
23.10.2014 08:08 9,0 C 8,3 C 94 % 1022,6 hPa 0,0 l/m 0 min 0 min 5 W/m 10,5 km/h (2 Bft)
23.10.2014 08:10 9,0 C 8,3 C 94 % 1022,7 hPa 0,0 l/m 0 min 0 min 5 W/m 12,6 km/h (3 Bft)
23.10.2014 08:12 9,0 C 8,3 C 94 % 1022,7 hPa 0,0 l/m 0 min 0 min 5 W/m 8,4 km/h (2 Bft)
23.10.2014 08:14 9,1 C 8,3 C 94 % 1022,7 hPa 0,0 l/m 0 min 0 min 5 W/m 10,5 km/h (2 Bft)
23.10.2014 08:16 9,1 C 8,3 C 94 % 1022,7 hPa 0,0 l/m 0 min 0 min 5 W/m 6,3 km/h (2 Bft)
23.10.2014 08:18 9,1 C 8,3 C 94 % 1022,7 hPa 0,0 l/m 0 min 0 min 7 W/m 10,5 km/h (2 Bft)
23.10.2014 08:20 9,1 C 8,3 C 94 % 1022,7 hPa 0,0 l/m 0 min 0 min 7 W/m 10,5 km/h (2 Bft)
23.10.2014 08:22 9,1 C 8,3 C 94 % 1022,7 hPa 0,0 l/m 0 min 0 min 9 W/m 6,3 km/h (2 Bft)
23.10.2014 08:24 9,1 C 8,3 C 94 % 1022,7 hPa 0,0 l/m 0 min 0 min 11 W/m 16,7 km/h (3 Bft)
23.10.2014 08:26 9,1 C 8,3 C 94 % 1022,8 hPa 0,0 l/m 0 min 0 min 12 W/m 10,5 km/h (2 Bft)
23.10.2014 08:28 9,1 C 8,3 C 94 % 1022,8 hPa 0,0 l/m 0 min 0 min 15 W/m 10,5 km/h (2 Bft)
23.10.2014 08:30 9,1 C 8,3 C 94 % 1022,8 hPa 0,0 l/m 0 min 0 min 18 W/m 8,4 km/h (2 Bft)
23.10.2014 08:32 9,1 C 8,3 C 94 % 1022,9 hPa 0,0 l/m 0 min 0 min 20 W/m 12,6 km/h (3 Bft)
23.10.2014 08:34 9,1 C 8,3 C 94 % 1022,8 hPa 0,0 l/m 0 min 0 min 23 W/m 10,5 km/h (2 Bft)
23.10.2014 08:36 9,1 C 8,3 C 94 % 1022,9 hPa 0,0 l/m 0 min 0 min 26 W/m 8,4 km/h (2 Bft)
23.10.2014 08:38 9,1 C 8,3 C 94 % 1022,8 hPa 0,0 l/m 0 min 0 min 30 W/m 10,5 km/h (2 Bft)
23.10.2014 08:40 9,1 C 8,3 C 94 % 1022,8 hPa 0,0 l/m 2 min 0 min 34 W/m 10,5 km/h (2 Bft)
23.10.2014 08:42 9,1 C 8,3 C 94 % 1022,9 hPa 0,0 l/m 2 min 0 min 37 W/m 10,5 km/h (2 Bft)
23.10.2014 08:44 9,2 C 8,9 C 94 % 1022,9 hPa 0,0 l/m 2 min 0 min 42 W/m 12,6 km/h (3 Bft)
23.10.2014 08:46 9,2 C 8,9 C 94 % 1022,9 hPa 0,0 l/m 2 min 0 min 45 W/m 8,4 km/h (2 Bft)
23.10.2014 08:48 9,2 C 8,9 C 94 % 1022,9 hPa 0,0 l/m 2 min 0 min 46 W/m 10,5 km/h (2 Bft)
23.10.2014 08:50 9,2 C 8,9 C 94 % 1022,9 hPa 0,0 l/m 0 min 0 min 43 W/m 14,6 km/h (3 Bft)
23.10.2014 08:52 9,2 C 8,9 C 94 % 1022,8 hPa 0,0 l/m 0 min 0 min 37 W/m 10,5 km/h (2 Bft)
23.10.2014 08:54 9,2 C 8,9 C 94 % 1022,9 hPa 0,0 l/m 0 min 0 min 33 W/m 10,5 km/h (2 Bft)
23.10.2014 08:56 9,2 C 8,9 C 94 % 1022,8 hPa 0,0 l/m 0 min 0 min 32 W/m 10,5 km/h (2 Bft)
23.10.2014 08:58 9,3 C 8,9 C 94 % 1022,9 hPa 0,0 l/m 0 min 0 min 33 W/m 8,4 km/h (2 Bft)
23.10.2014 09:00 9,3 C 8,9 C 94 % 1022,9 hPa 0,0 l/m 0 min 0 min 35 W/m 8,4 km/h (2 Bft)
23.10.2014 09:02 9,3 C 8,9 C 94 % 1022,9 hPa 0,0 l/m 0 min 0 min 36 W/m 12,6 km/h (3 Bft)
23.10.2014 09:04 9,3 C 8,9 C 94 % 1022,9 hPa 0,0 l/m 0 min 0 min 39 W/m 8,4 km/h (2 Bft)
23.10.2014 09:06 9,3 C 8,9 C 94 % 1022,9 hPa 0,0 l/m 0 min 0 min 41 W/m 8,4 km/h (2 Bft)
23.10.2014 09:08 9,3 C 8,9 C 94 % 1022,9 hPa 0,0 l/m 0 min 0 min 43 W/m 12,6 km/h (3 Bft)
23.10.2014 09:10 9,4 C 8,9 C 94 % 1023,0 hPa 0,0 l/m 0 min 0 min 44 W/m 6,3 km/h (2 Bft)
23.10.2014 09:12 9,4 C 8,9 C 94 % 1023,1 hPa 0,0 l/m 0 min 0 min 59 W/m 12,6 km/h (3 Bft)
23.10.2014 09:14 9,4 C 8,9 C 94 % 1023,0 hPa 0,0 l/m 0 min 0 min 70 W/m 14,6 km/h (3 Bft)
23.10.2014 09:16 9,4 C 9,4 C 94 % 1023,1 hPa 0,0 l/m 2 min 0 min 82 W/m 8,4 km/h (2 Bft)
23.10.2014 09:18 9,5 C 9,4 C 94 % 1023,1 hPa 0,0 l/m 2 min 0 min 87 W/m 10,5 km/h (2 Bft)
23.10.2014 09:20 9,5 C 9,4 C 94 % 1023,1 hPa 0,0 l/m 2 min 0 min 91 W/m 10,5 km/h (2 Bft)
23.10.2014 09:22 9,6 C 9,4 C 94 % 1023,1 hPa 0,0 l/m 2 min 0 min 93 W/m 14,6 km/h (3 Bft)
23.10.2014 09:24 9,6 C 9,4 C 94 % 1023,2 hPa 0,0 l/m 2 min 0 min 95 W/m 12,6 km/h (3 Bft)
23.10.2014 09:26 9,6 C 9,4 C 94 % 1023,2 hPa 0,0 l/m 2 min 0 min 99 W/m 8,4 km/h (2 Bft)
23.10.2014 09:28 9,7 C 9,4 C 94 % 1023,1 hPa 0,0 l/m 2 min 0 min 114 W/m 14,6 km/h (3 Bft)
23.10.2014 09:30 9,7 C 9,4 C 94 % 1023,2 hPa 0,0 l/m 2 min 0 min 119 W/m 8,4 km/h (2 Bft)
23.10.2014 09:32 9,7 C 10,0 C 94 % 1023,1 hPa 0,0 l/m 2 min 0 min 129 W/m 6,3 km/h (2 Bft)
23.10.2014 09:34 9,8 C 10,0 C 94 % 1023,1 hPa 0,0 l/m 2 min 0 min 138 W/m 12,6 km/h (3 Bft)
23.10.2014 09:36 9,8 C 10,0 C 94 % 1023,1 hPa 0,0 l/m 2 min 0 min 145 W/m 14,6 km/h (3 Bft)
23.10.2014 09:38 9,8 C 10,0 C 94 % 1023,1 hPa 0,0 l/m 2 min 0 min 138 W/m 10,5 km/h (2 Bft)
23.10.2014 09:40 9,9 C 10,0 C 94 % 1023,0 hPa 0,0 l/m 2 min 0 min 125 W/m 16,7 km/h (3 Bft)
23.10.2014 09:42 9,9 C 10,0 C 94 % 1023,0 hPa 0,0 l/m 0 min 0 min 113 W/m 16,7 km/h (3 Bft)
23.10.2014 09:44 9,9 C 9,4 C 93 % 1023,0 hPa 0,0 l/m 0 min 0 min 103 W/m 12,6 km/h (3 Bft)
23.10.2014 09:46 10,0 C 9,4 C 93 % 1023,0 hPa 0,0 l/m 0 min 0 min 115 W/m 14,6 km/h (3 Bft)
23.10.2014 09:48 10,1 C 9,4 C 93 % 1023,0 hPa 0,0 l/m 2 min 0 min 144 W/m 16,7 km/h (3 Bft)
23.10.2014 09:50 10,1 C 10,0 C 93 % 1023,0 hPa 0,0 l/m 2 min 0 min 150 W/m 10,5 km/h (2 Bft)
23.10.2014 09:52 10,1 C 10,0 C 93 % 1023,1 hPa 0,0 l/m 2 min 0 min 140 W/m 12,6 km/h (3 Bft)
23.10.2014 09:54 10,2 C 10,0 C 93 % 1023,1 hPa 0,0 l/m 0 min 0 min 102 W/m 12,6 km/h (3 Bft)
23.10.2014 09:56 10,2 C 10,0 C 93 % 1023,1 hPa 0,0 l/m 0 min 0 min 91 W/m 14,6 km/h (3 Bft)
23.10.2014 09:58 10,2 C 10,0 C 93 % 1023,1 hPa 0,0 l/m 0 min 0 min 81 W/m 14,6 km/h (3 Bft)
23.10.2014 10:00 10,2 C 10,0 C 93 % 1023,2 hPa 0,0 l/m 0 min 0 min 77 W/m 12,6 km/h (3 Bft)
23.10.2014 10:02 10,3 C 10,0 C 92 % 1023,1 hPa 0,0 l/m 0 min 0 min 78 W/m 14,6 km/h (3 Bft)
23.10.2014 10:04 10,3 C 10,0 C 92 % 1023,1 hPa 0,0 l/m 0 min 0 min 81 W/m 12,6 km/h (3 Bft)
23.10.2014 10:06 10,3 C 10,0 C 92 % 1023,2 hPa 0,0 l/m 0 min 0 min 82 W/m 14,6 km/h (3 Bft)
23.10.2014 10:08 10,3 C 10,0 C 92 % 1023,2 hPa 0,0 l/m 0 min 0 min 83 W/m 14,6 km/h (3 Bft)
23.10.2014 10:10 10,3 C 10,0 C 92 % 1023,2 hPa 0,0 l/m 0 min 0 min 84 W/m 8,4 km/h (2 Bft)
23.10.2014 10:12 10,4 C 10,0 C 92 % 1023,2 hPa 0,0 l/m 0 min 0 min 87 W/m 14,6 km/h (3 Bft)
23.10.2014 10:14 10,4 C 10,0 C 92 % 1023,2 hPa 0,0 l/m 0 min 0 min 92 W/m 10,5 km/h (2 Bft)
23.10.2014 10:16 10,4 C 10,0 C 91 % 1023,2 hPa 0,0 l/m 0 min 0 min 98 W/m 14,6 km/h (3 Bft)
23.10.2014 10:18 10,4 C 10,0 C 91 % 1023,2 hPa 0,0 l/m 0 min 0 min 103 W/m 14,6 km/h (3 Bft)
23.10.2014 10:20 10,5 C 10,0 C 91 % 1023,2 hPa 0,0 l/m 0 min 0 min 105 W/m 16,7 km/h (3 Bft)
23.10.2014 10:22 10,5 C 10,0 C 91 % 1023,2 hPa 0,0 l/m 0 min 0 min 107 W/m 10,5 km/h (2 Bft)
23.10.2014 10:24 10,5 C 10,0 C 91 % 1023,2 hPa 0,0 l/m 0 min 0 min 109 W/m 12,6 km/h (3 Bft)
23.10.2014 10:26 10,6 C 10,0 C 91 % 1023,2 hPa 0,0 l/m 0 min 0 min 111 W/m 12,6 km/h (3 Bft)
23.10.2014 10:28 10,6 C 10,0 C 91 % 1023,3 hPa 0,0 l/m 0 min 0 min 110 W/m 14,6 km/h (3 Bft)
23.10.2014 10:30 10,6 C 10,0 C 91 % 1023,3 hPa 0,0 l/m 0 min 0 min 106 W/m 10,5 km/h (2 Bft)
23.10.2014 10:32 10,7 C 10,0 C 91 % 1023,3 hPa 0,0 l/m 0 min 0 min 104 W/m 12,6 km/h (3 Bft)
23.10.2014 10:34 10,7 C 10,0 C 91 % 1023,3 hPa 0,0 l/m 0 min 0 min 102 W/m 14,6 km/h (3 Bft)
23.10.2014 10:36 10,7 C 10,0 C 90 % 1023,4 hPa 0,0 l/m 0 min 0 min 99 W/m 12,6 km/h (3 Bft)
23.10.2014 10:38 10,7 C 10,0 C 90 % 1023,4 hPa 0,0 l/m 0 min 0 min 94 W/m 14,6 km/h (3 Bft)
23.10.2014 10:40 10,7 C 10,0 C 90 % 1023,4 hPa 0,0 l/m 0 min 0 min 91 W/m 18,8 km/h (3 Bft)
23.10.2014 10:42 10,7 C 10,0 C 90 % 1023,4 hPa 0,0 l/m 0 min 0 min 91 W/m 10,5 km/h (2 Bft)
23.10.2014 10:44 10,7 C 10,0 C 90 % 1023,4 hPa 0,0 l/m 0 min 0 min 95 W/m 12,6 km/h (3 Bft)
23.10.2014 10:46 10,8 C 10,0 C 90 % 1023,4 hPa 0,0 l/m 0 min 0 min 98 W/m 6,3 km/h (2 Bft)
23.10.2014 10:48 10,8 C 10,6 C 90 % 1023,4 hPa 0,0 l/m 0 min 0 min 100 W/m 10,5 km/h (2 Bft)
23.10.2014 10:50 10,8 C 10,6 C 90 % 1023,4 hPa 0,0 l/m 0 min 0 min 105 W/m 10,5 km/h (2 Bft)
23.10.2014 10:52 10,8 C 10,6 C 90 % 1023,3 hPa 0,0 l/m 0 min 0 min 115 W/m 14,6 km/h (3 Bft)
23.10.2014 10:54 10,8 C 10,6 C 89 % 1023,3 hPa 0,0 l/m 0 min 0 min 127 W/m 14,6 km/h (3 Bft)
23.10.2014 10:56 10,8 C 10,6 C 89 % 1023,3 hPa 0,0 l/m 0 min 0 min 138 W/m 16,7 km/h (3 Bft)
23.10.2014 10:58 10,9 C 10,6 C 89 % 1023,4 hPa 0,0 l/m 0 min 0 min 146 W/m 14,6 km/h (3 Bft)
23.10.2014 11:00 10,9 C 10,6 C 89 % 1023,4 hPa 0,0 l/m 0 min 0 min 145 W/m 20,9 km/h (4 Bft)
23.10.2014 11:02 10,9 C 10,6 C 89 % 1023,5 hPa 0,0 l/m 0 min 0 min 136 W/m 10,5 km/h (2 Bft)
23.10.2014 11:04 10,9 C 10,6 C 89 % 1023,4 hPa 0,0 l/m 0 min 0 min 132 W/m 10,5 km/h (2 Bft)
23.10.2014 11:06 11,0 C 10,6 C 89 % 1023,4 hPa 0,0 l/m 0 min 0 min 137 W/m 16,7 km/h (3 Bft)
23.10.2014 11:08 11,0 C 10,6 C 89 % 1023,4 hPa 0,0 l/m 0 min 0 min 142 W/m 16,7 km/h (3 Bft)
23.10.2014 11:10 11,1 C 10,6 C 89 % 1023,4 hPa 0,0 l/m 0 min 0 min 147 W/m 18,8 km/h (3 Bft)
23.10.2014 11:12 11,1 C 10,6 C 89 % 1023,4 hPa 0,0 l/m 0 min 0 min 151 W/m 16,7 km/h (3 Bft)
23.10.2014 11:14 11,1 C 10,6 C 89 % 1023,4 hPa 0,0 l/m 0 min 0 min 146 W/m 16,7 km/h (3 Bft)
23.10.2014 11:16 11,2 C 10,6 C 89 % 1023,4 hPa 0,0 l/m 0 min 0 min 135 W/m 16,7 km/h (3 Bft)
23.10.2014 11:18 11,2 C 10,6 C 89 % 1023,4 hPa 0,0 l/m 0 min 0 min 132 W/m 14,6 km/h (3 Bft)
23.10.2014 11:20 11,2 C 10,6 C 89 % 1023,4 hPa 0,0 l/m 0 min 0 min 134 W/m 16,7 km/h (3 Bft)
23.10.2014 11:22 11,2 C 10,6 C 88 % 1023,4 hPa 0,0 l/m 0 min 0 min 135 W/m 16,7 km/h (3 Bft)
23.10.2014 11:24 11,2 C 10,6 C 88 % 1023,4 hPa 0,0 l/m 0 min 0 min 139 W/m 20,9 km/h (4 Bft)
23.10.2014 11:26 11,2 C 10,6 C 88 % 1023,4 hPa 0,0 l/m 0 min 0 min 138 W/m 18,8 km/h (3 Bft)
23.10.2014 11:28 11,3 C 10,6 C 88 % 1023,4 hPa 0,0 l/m 0 min 0 min 133 W/m 12,6 km/h (3 Bft)
23.10.2014 11:30 11,3 C 10,6 C 88 % 1023,5 hPa 0,0 l/m 0 min 0 min 126 W/m 16,7 km/h (3 Bft)
23.10.2014 11:32 11,3 C 10,6 C 88 % 1023,5 hPa 0,0 l/m 0 min 0 min 121 W/m 14,6 km/h (3 Bft)
23.10.2014 11:34 11,3 C 11,1 C 88 % 1023,6 hPa 0,0 l/m 0 min 0 min 120 W/m 12,6 km/h (3 Bft)
23.10.2014 11:36 11,3 C 11,1 C 88 % 1023,5 hPa 0,0 l/m 0 min 0 min 116 W/m 16,7 km/h (3 Bft)
23.10.2014 11:38 11,4 C 10,6 C 88 % 1023,5 hPa 0,0 l/m 0 min 0 min 114 W/m 18,8 km/h (3 Bft)
23.10.2014 11:40 11,4 C 10,6 C 88 % 1023,5 hPa 0,0 l/m 0 min 0 min 117 W/m 12,6 km/h (3 Bft)
23.10.2014 11:42 11,4 C 11,1 C 88 % 1023,6 hPa 0,0 l/m 0 min 0 min 111 W/m 8,4 km/h (2 Bft)
23.10.2014 11:44 11,4 C 10,6 C 88 % 1023,5 hPa 0,0 l/m 0 min 0 min 102 W/m 10,5 km/h (2 Bft)
23.10.2014 11:46 11,4 C 11,1 C 88 % 1023,5 hPa 0,0 l/m 0 min 0 min 97 W/m 8,4 km/h (2 Bft)
23.10.2014 11:48 11,4 C 11,1 C 88 % 1023,6 hPa 0,0 l/m 0 min 0 min 97 W/m 8,4 km/h (2 Bft)
23.10.2014 11:50 11,4 C 10,6 C 88 % 1023,5 hPa 0,0 l/m 0 min 0 min 96 W/m 16,7 km/h (3 Bft)
23.10.2014 11:52 11,4 C 10,6 C 88 % 1023,5 hPa 0,0 l/m 0 min 0 min 96 W/m 16,7 km/h (3 Bft)
23.10.2014 11:54 11,4 C 10,6 C 88 % 1023,6 hPa 0,0 l/m 0 min 0 min 103 W/m 12,6 km/h (3 Bft)
23.10.2014 11:56 11,4 C 10,6 C 87 % 1023,5 hPa 0,0 l/m 0 min 0 min 112 W/m 14,6 km/h (3 Bft)
23.10.2014 11:58 11,4 C 10,6 C 87 % 1023,6 hPa 0,0 l/m 0 min 0 min 117 W/m 14,6 km/h (3 Bft)
23.10.2014 12:00 11,5 C 11,1 C 87 % 1023,6 hPa 0,0 l/m 0 min 0 min 124 W/m 12,6 km/h (3 Bft)
23.10.2014 12:02 11,5 C 11,1 C 87 % 1023,7 hPa 0,0 l/m 0 min 0 min 128 W/m 12,6 km/h (3 Bft)
23.10.2014 12:05 11,5 C 11,1 C 88 % 1023,7 hPa 0,0 l/m 0 min 0 min 129 W/m 12,6 km/h (3 Bft)
23.10.2014 12:06 11,6 C 11,1 C 88 % 1023,7 hPa 0,0 l/m 0 min 0 min 141 W/m 10,5 km/h (2 Bft)
23.10.2014 12:08 11,6 C 11,1 C 87 % 1023,6 hPa 0,0 l/m 0 min 0 min 158 W/m 10,5 km/h (2 Bft)
23.10.2014 12:10 11,6 C 11,1 C 87 % 1023,6 hPa 0,0 l/m 0 min 0 min 177 W/m 12,6 km/h (3 Bft)
23.10.2014 12:12 11,6 C 11,7 C 87 % 1023,5 hPa 0,0 l/m 0 min 0 min 197 W/m 8,4 km/h (2 Bft)
23.10.2014 12:14 11,6 C 11,7 C 87 % 1023,6 hPa 0,0 l/m 0 min 0 min 224 W/m 16,7 km/h (3 Bft)
23.10.2014 12:16 11,7 C 11,7 C 87 % 1023,5 hPa 0,0 l/m 0 min 0 min 239 W/m 25,1 km/h (4 Bft)
23.10.2014 12:18 11,7 C 11,7 C 87 % 1023,6 hPa 0,0 l/m 0 min 0 min 241 W/m 18,8 km/h (3 Bft)
23.10.2014 12:20 11,7 C 11,7 C 87 % 1023,5 hPa 0,0 l/m 0 min 0 min 236 W/m 14,6 km/h (3 Bft)
23.10.2014 12:22 11,8 C 11,7 C 87 % 1023,5 hPa 0,0 l/m 0 min 0 min 227 W/m 16,7 km/h (3 Bft)
23.10.2014 12:24 11,8 C 11,7 C 87 % 1023,5 hPa 0,0 l/m 0 min 0 min 227 W/m 18,8 km/h (3 Bft)
23.10.2014 12:26 11,9 C 11,7 C 87 % 1023,4 hPa 0,0 l/m 0 min 0 min 229 W/m 18,8 km/h (3 Bft)
23.10.2014 12:28 11,9 C 11,7 C 87 % 1023,5 hPa 0,0 l/m 0 min 0 min 223 W/m 18,8 km/h (3 Bft)
23.10.2014 12:30 11,9 C 11,7 C 87 % 1023,4 hPa 0,0 l/m 0 min 0 min 184 W/m 18,8 km/h (3 Bft)
23.10.2014 12:32 12,0 C 11,7 C 87 % 1023,4 hPa 0,0 l/m 0 min 0 min 148 W/m 12,6 km/h (3 Bft)
23.10.2014 12:34 12,0 C 11,7 C 86 % 1023,4 hPa 0,0 l/m 0 min 0 min 154 W/m 12,6 km/h (3 Bft)
23.10.2014 12:36 12,1 C 11,7 C 86 % 1023,5 hPa 0,0 l/m 0 min 0 min 178 W/m 12,6 km/h (3 Bft)
23.10.2014 12:38 12,1 C 11,7 C 86 % 1023,4 hPa 0,0 l/m 0 min 0 min 165 W/m 12,6 km/h (3 Bft)
23.10.2014 12:40 12,1 C 11,7 C 86 % 1023,5 hPa 0,0 l/m 0 min 0 min 149 W/m 12,6 km/h (3 Bft)
23.10.2014 12:42 12,2 C 11,7 C 86 % 1023,4 hPa 0,0 l/m 0 min 0 min 147 W/m 16,7 km/h (3 Bft)
23.10.2014 12:44 12,2 C 11,7 C 86 % 1023,4 hPa 0,0 l/m 0 min 0 min 153 W/m 12,6 km/h (3 Bft)
23.10.2014 12:46 12,2 C 11,7 C 86 % 1023,4 hPa 0,0 l/m 0 min 0 min 168 W/m 10,5 km/h (2 Bft)
23.10.2014 12:48 12,2 C 11,7 C 86 % 1023,4 hPa 0,0 l/m 0 min 0 min 173 W/m 14,6 km/h (3 Bft)
23.10.2014 12:50 12,2 C 11,7 C 86 % 1023,4 hPa 0,0 l/m 0 min 0 min 162 W/m 18,8 km/h (3 Bft)
23.10.2014 12:52 12,2 C 11,7 C 86 % 1023,4 hPa 0,0 l/m 0 min 0 min 161 W/m 14,6 km/h (3 Bft)
23.10.2014 12:54 12,2 C 11,7 C 86 % 1023,4 hPa 0,0 l/m 0 min 0 min 169 W/m 16,7 km/h (3 Bft)
23.10.2014 12:56 12,2 C 11,7 C 85 % 1023,4 hPa 0,0 l/m 0 min 0 min 182 W/m 20,9 km/h (4 Bft)
23.10.2014 12:58 12,2 C 11,7 C 86 % 1023,4 hPa 0,0 l/m 0 min 0 min 194 W/m 16,7 km/h (3 Bft)
23.10.2014 13:00 12,3 C 11,7 C 86 % 1023,4 hPa 0,0 l/m 0 min 0 min 183 W/m 12,6 km/h (3 Bft)
23.10.2014 13:02 12,3 C 11,7 C 85 % 1023,4 hPa 0,0 l/m 0 min 0 min 164 W/m 14,6 km/h (3 Bft)
23.10.2014 13:04 12,3 C 11,7 C 86 % 1023,4 hPa 0,0 l/m 0 min 0 min 155 W/m 16,7 km/h (3 Bft)
23.10.2014 13:06 12,3 C 11,7 C 86 % 1023,3 hPa 0,0 l/m 0 min 0 min 157 W/m 14,6 km/h (3 Bft)
23.10.2014 13:08 12,4 C 11,7 C 86 % 1023,3 hPa 0,0 l/m 0 min 0 min 166 W/m 18,8 km/h (3 Bft)
23.10.2014 13:10 12,4 C 11,7 C 86 % 1023,3 hPa 0,0 l/m 0 min 0 min 174 W/m 16,7 km/h (3 Bft)
23.10.2014 13:12 12,4 C 11,7 C 86 % 1023,4 hPa 0,0 l/m 0 min 0 min 182 W/m 16,7 km/h (3 Bft)
23.10.2014 13:14 12,4 C 11,7 C 86 % 1023,3 hPa 0,0 l/m 0 min 0 min 187 W/m 18,8 km/h (3 Bft)
23.10.2014 13:16 12,4 C 11,7 C 86 % 1023,3 hPa 0,0 l/m 0 min 0 min 185 W/m 16,7 km/h (3 Bft)
23.10.2014 13:18 12,4 C 12,2 C 86 % 1023,3 hPa 0,0 l/m 0 min 0 min 180 W/m 18,8 km/h (3 Bft)
23.10.2014 13:20 12,4 C 12,2 C 86 % 1023,3 hPa 0,0 l/m 0 min 0 min 190 W/m 16,7 km/h (3 Bft)
23.10.2014 13:22 12,4 C 12,2 C 86 % 1023,3 hPa 0,0 l/m 0 min 0 min 198 W/m 14,6 km/h (3 Bft)
23.10.2014 13:24 12,5 C 12,2 C 86 % 1023,3 hPa 0,0 l/m 0 min 0 min 188 W/m 16,7 km/h (3 Bft)
23.10.2014 13:26 12,5 C 12,2 C 86 % 1023,3 hPa 0,0 l/m 0 min 0 min 187 W/m 14,6 km/h (3 Bft)
23.10.2014 13:28 12,6 C 12,2 C 86 % 1023,3 hPa 0,0 l/m 0 min 0 min 200 W/m 16,7 km/h (3 Bft)
23.10.2014 13:30 12,6 C 12,2 C 86 % 1023,2 hPa 0,0 l/m 0 min 0 min 212 W/m 18,8 km/h (3 Bft)
23.10.2014 13:32 12,6 C 12,2 C 86 % 1023,2 hPa 0,0 l/m 0 min 0 min 222 W/m 18,8 km/h (3 Bft)
23.10.2014 13:34 12,7 C 12,8 C 86 % 1023,2 hPa 0,0 l/m 0 min 0 min 227 W/m 12,6 km/h (3 Bft)
23.10.2014 13:36 12,7 C 12,8 C 86 % 1023,1 hPa 0,0 l/m 0 min 0 min 235 W/m 16,7 km/h (3 Bft)
23.10.2014 13:38 12,7 C 12,8 C 86 % 1023,1 hPa 0,0 l/m 0 min 0 min 251 W/m 16,7 km/h (3 Bft)
23.10.2014 13:40 12,8 C 12,8 C 86 % 1023,0 hPa 0,0 l/m 2 min 0 min 268 W/m 16,7 km/h (3 Bft)
23.10.2014 13:42 12,8 C 12,8 C 86 % 1023,0 hPa 0,0 l/m 2 min 0 min 306 W/m 14,6 km/h (3 Bft)
23.10.2014 13:44 12,9 C 12,8 C 86 % 1023,0 hPa 0,0 l/m 2 min 0 min 319 W/m 14,6 km/h (3 Bft)
23.10.2014 13:46 12,9 C 13,3 C 86 % 1023,0 hPa 0,0 l/m 2 min 0 min 285 W/m 14,6 km/h (3 Bft)
23.10.2014 13:48 13,0 C 13,3 C 86 % 1023,0 hPa 0,0 l/m 2 min 0 min 260 W/m 20,9 km/h (4 Bft)
23.10.2014 13:50 13,1 C 13,3 C 86 % 1023,0 hPa 0,0 l/m 2 min 0 min 258 W/m 23,0 km/h (4 Bft)
23.10.2014 13:52 13,2 C 12,8 C 86 % 1023,0 hPa 0,0 l/m 2 min 0 min 257 W/m 18,8 km/h (3 Bft)
23.10.2014 13:54 13,2 C 12,8 C 86 % 1022,9 hPa 0,0 l/m 0 min 0 min 235 W/m 23,0 km/h (4 Bft)
23.10.2014 13:56 13,2 C 12,8 C 85 % 1022,9 hPa 0,0 l/m 0 min 0 min 208 W/m 18,8 km/h (3 Bft)
23.10.2014 13:58 13,2 C 12,8 C 85 % 1022,9 hPa 0,0 l/m 0 min 0 min 193 W/m 20,9 km/h (4 Bft)
23.10.2014 14:00 13,2 C 12,8 C 85 % 1022,9 hPa 0,0 l/m 0 min 0 min 185 W/m 23,0 km/h (4 Bft)
23.10.2014 14:02 13,2 C 12,2 C 84 % 1022,8 hPa 0,0 l/m 0 min 0 min 178 W/m 18,8 km/h (3 Bft)
23.10.2014 14:04 13,2 C 12,2 C 84 % 1022,8 hPa 0,0 l/m 0 min 0 min 172 W/m 23,0 km/h (4 Bft)
23.10.2014 14:06 13,2 C 12,8 C 84 % 1022,8 hPa 0,0 l/m 0 min 0 min 174 W/m 16,7 km/h (3 Bft)
23.10.2014 14:08 13,2 C 12,2 C 84 % 1022,9 hPa 0,0 l/m 0 min 0 min 186 W/m 18,8 km/h (3 Bft)
23.10.2014 14:10 13,2 C 12,8 C 84 % 1022,8 hPa 0,0 l/m 0 min 0 min 187 W/m 23,0 km/h (4 Bft)
23.10.2014 14:12 13,2 C 12,8 C 84 % 1022,8 hPa 0,0 l/m 0 min 0 min 178 W/m 16,7 km/h (3 Bft)
23.10.2014 14:14 13,3 C 12,8 C 84 % 1022,7 hPa 0,0 l/m 0 min 0 min 183 W/m 29,3 km/h (5 Bft)
23.10.2014 14:16 13,2 C 12,8 C 84 % 1022,7 hPa 0,0 l/m 0 min 0 min 211 W/m 14,6 km/h (3 Bft)
23.10.2014 14:18 13,2 C 12,8 C 84 % 1022,7 hPa 0,0 l/m 0 min 0 min 224 W/m 18,8 km/h (3 Bft)
23.10.2014 14:20 13,3 C 12,8 C 84 % 1022,7 hPa 0,0 l/m 0 min 0 min 218 W/m 16,7 km/h (3 Bft)
23.10.2014 14:22 13,3 C 12,8 C 84 % 1022,7 hPa 0,0 l/m 0 min 0 min 232 W/m 16,7 km/h (3 Bft)
23.10.2014 14:24 13,3 C 12,8 C 84 % 1022,7 hPa 0,0 l/m 0 min 0 min 236 W/m 16,7 km/h (3 Bft)
23.10.2014 14:26 13,4 C 12,8 C 85 % 1022,7 hPa 0,0 l/m 0 min 0 min 233 W/m 18,8 km/h (3 Bft)
23.10.2014 14:28 13,4 C 12,8 C 85 % 1022,7 hPa 0,0 l/m 0 min 0 min 214 W/m 16,7 km/h (3 Bft)
23.10.2014 14:30 13,4 C 12,8 C 85 % 1022,7 hPa 0,0 l/m 0 min 0 min 185 W/m 16,7 km/h (3 Bft)
23.10.2014 14:32 13,4 C 12,8 C 85 % 1022,7 hPa 0,0 l/m 0 min 0 min 176 W/m 16,7 km/h (3 Bft)
23.10.2014 14:34 13,5 C 12,8 C 85 % 1022,6 hPa 0,0 l/m 0 min 0 min 157 W/m 18,8 km/h (3 Bft)
23.10.2014 14:36 13,5 C 12,2 C 84 % 1022,6 hPa 0,0 l/m 0 min 0 min 157 W/m 20,9 km/h (4 Bft)
23.10.2014 14:38 13,5 C 12,2 C 84 % 1022,6 hPa 0,0 l/m 0 min 0 min 170 W/m 16,7 km/h (3 Bft)
23.10.2014 14:40 13,5 C 12,2 C 84 % 1022,6 hPa 0,0 l/m 0 min 0 min 200 W/m 12,6 km/h (3 Bft)
23.10.2014 14:42 13,5 C 12,8 C 84 % 1022,6 hPa 0,0 l/m 2 min 0 min 281 W/m 16,7 km/h (3 Bft)
23.10.2014 14:44 13,5 C 12,8 C 84 % 1022,6 hPa 0,0 l/m 2 min 0 min 306 W/m 16,7 km/h (3 Bft)
23.10.2014 14:46 13,6 C 12,8 C 84 % 1022,6 hPa 0,0 l/m 2 min 0 min 338 W/m 18,8 km/h (3 Bft)
23.10.2014 14:48 13,7 C 12,8 C 84 % 1022,6 hPa 0,0 l/m 2 min 0 min 358 W/m 23,0 km/h (4 Bft)
23.10.2014 14:50 13,7 C 13,3 C 84 % 1022,6 hPa 0,0 l/m 2 min 0 min 445 W/m 16,7 km/h (3 Bft)
23.10.2014 14:52 13,8 C 13,3 C 84 % 1022,6 hPa 0,0 l/m 2 min 0 min 423 W/m 18,8 km/h (3 Bft)
23.10.2014 14:54 13,9 C 13,3 C 84 % 1022,6 hPa 0,0 l/m 2 min 0 min 309 W/m 16,7 km/h (3 Bft)
23.10.2014 14:56 14,1 C 13,3 C 84 % 1022,6 hPa 0,0 l/m 2 min 0 min 389 W/m 12,6 km/h (3 Bft)
23.10.2014 14:58 14,2 C 13,9 C 84 % 1022,6 hPa 0,0 l/m 2 min 0 min 300 W/m 12,6 km/h (3 Bft)
23.10.2014 15:00 14,2 C 13,9 C 84 % 1022,5 hPa 0,0 l/m 2 min 0 min 249 W/m 14,6 km/h (3 Bft)
23.10.2014 15:02 14,2 C 13,9 C 84 % 1022,5 hPa 0,0 l/m 2 min 0 min 311 W/m 14,6 km/h (3 Bft)
23.10.2014 15:04 14,3 C 13,9 C 83 % 1022,5 hPa 0,0 l/m 2 min 0 min 335 W/m 18,8 km/h (3 Bft)
23.10.2014 15:06 14,4 C 13,9 C 82 % 1022,6 hPa 0,0 l/m 2 min 0 min 349 W/m 18,8 km/h (3 Bft)
23.10.2014 15:08 14,5 C 14,4 C 82 % 1022,5 hPa 0,0 l/m 2 min 0 min 370 W/m 12,6 km/h (3 Bft)
23.10.2014 15:10 14,6 C 14,4 C 82 % 1022,4 hPa 0,0 l/m 2 min 0 min 514 W/m 23,0 km/h (4 Bft)
23.10.2014 15:12 14,7 C 14,4 C 81 % 1022,4 hPa 0,0 l/m 2 min 0 min 581 W/m 25,1 km/h (4 Bft)
23.10.2014 15:14 14,8 C 14,4 C 81 % 1022,5 hPa 0,0 l/m 2 min 0 min 538 W/m 20,9 km/h (4 Bft)
23.10.2014 15:16 14,9 C 14,4 C 80 % 1022,4 hPa 0,0 l/m 2 min 0 min 493 W/m 25,1 km/h (4 Bft)
23.10.2014 15:18 15,1 C 14,4 C 80 % 1022,4 hPa 0,0 l/m 2 min 0 min 352 W/m 18,8 km/h (3 Bft)
23.10.2014 15:20 15,1 C 14,4 C 79 % 1022,5 hPa 0,0 l/m 2 min 0 min 302 W/m 20,9 km/h (4 Bft)
23.10.2014 15:22 15,2 C 14,4 C 78 % 1022,4 hPa 0,0 l/m 2 min 0 min 255 W/m 16,7 km/h (3 Bft)
23.10.2014 15:24 15,2 C 14,4 C 78 % 1022,4 hPa 0,0 l/m 2 min 0 min 260 W/m 23,0 km/h (4 Bft)
23.10.2014 15:26 15,2 C 14,4 C 78 % 1022,4 hPa 0,0 l/m 2 min 0 min 291 W/m 20,9 km/h (4 Bft)
23.10.2014 15:28 15,2 C 13,9 C 78 % 1022,4 hPa 0,0 l/m 2 min 0 min 299 W/m 20,9 km/h (4 Bft)
23.10.2014 15:30 15,2 C 13,9 C 78 % 1022,4 hPa 0,0 l/m 2 min 0 min 273 W/m 18,8 km/h (3 Bft)
23.10.2014 15:32 15,2 C 13,9 C 78 % 1022,4 hPa 0,0 l/m 2 min 0 min 321 W/m 20,9 km/h (4 Bft)
23.10.2014 15:34 15,2 C 13,9 C 78 % 1022,4 hPa 0,0 l/m 2 min 0 min 346 W/m 23,0 km/h (4 Bft)
23.10.2014 15:36 15,2 C 13,9 C 78 % 1022,4 hPa 0,0 l/m 2 min 0 min 406 W/m 20,9 km/h (4 Bft)
23.10.2014 15:38 15,3 C 13,9 C 78 % 1022,4 hPa 0,0 l/m 2 min 0 min 425 W/m 18,8 km/h (3 Bft)
23.10.2014 15:40 15,3 C 13,9 C 78 % 1022,4 hPa 0,0 l/m 2 min 0 min 417 W/m 25,1 km/h (4 Bft)
23.10.2014 15:42 15,3 C 13,9 C 77 % 1022,4 hPa 0,0 l/m 2 min 0 min 404 W/m 20,9 km/h (4 Bft)
23.10.2014 15:44 15,4 C 13,9 C 77 % 1022,4 hPa 0,0 l/m 2 min 0 min 391 W/m 20,9 km/h (4 Bft)
23.10.2014 15:46 15,4 C 13,9 C 77 % 1022,4 hPa 0,0 l/m 2 min 0 min 367 W/m 14,6 km/h (3 Bft)
23.10.2014 15:48 15,5 C 13,9 C 77 % 1022,4 hPa 0,0 l/m 2 min 0 min 282 W/m 18,8 km/h (3 Bft)
23.10.2014 15:50 15,5 C 13,9 C 77 % 1022,4 hPa 0,0 l/m 2 min 0 min 249 W/m 16,7 km/h (3 Bft)
23.10.2014 15:52 15,5 C 13,9 C 77 % 1022,4 hPa 0,0 l/m 2 min 0 min 192 W/m 12,6 km/h (3 Bft)
23.10.2014 15:54 15,5 C 13,3 C 77 % 1022,4 hPa 0,0 l/m 0 min 0 min 153 W/m 16,7 km/h (3 Bft)
23.10.2014 15:56 15,5 C 13,3 C 77 % 1022,5 hPa 0,0 l/m 0 min 0 min 166 W/m 20,9 km/h (4 Bft)
23.10.2014 15:58 15,4 C 13,3 C 77 % 1022,5 hPa 0,0 l/m 0 min 0 min 166 W/m 12,6 km/h (3 Bft)
23.10.2014 16:00 15,4 C 13,3 C 77 % 1022,5 hPa 0,0 l/m 0 min 0 min 158 W/m 16,7 km/h (3 Bft)
23.10.2014 16:02 15,4 C 13,3 C 77 % 1022,5 hPa 0,0 l/m 0 min 0 min 155 W/m 20,9 km/h (4 Bft)
23.10.2014 16:04 15,3 C 13,3 C 77 % 1022,5 hPa 0,0 l/m 0 min 0 min 154 W/m 20,9 km/h (4 Bft)
23.10.2014 16:06 15,2 C 13,3 C 77 % 1022,5 hPa 0,0 l/m 0 min 0 min 149 W/m 14,6 km/h (3 Bft)
23.10.2014 16:08 15,2 C 13,3 C 77 % 1022,5 hPa 0,0 l/m 0 min 0 min 156 W/m 12,6 km/h (3 Bft)
23.10.2014 16:10 15,1 C 13,3 C 78 % 1022,7 hPa 0,0 l/m 0 min 0 min 148 W/m 12,6 km/h (3 Bft)
23.10.2014 16:12 15,1 C 13,3 C 78 % 1022,6 hPa 0,0 l/m 0 min 0 min 141 W/m 14,6 km/h (3 Bft)
23.10.2014 16:14 15,0 C 13,3 C 78 % 1022,6 hPa 0,0 l/m 0 min 0 min 136 W/m 12,6 km/h (3 Bft)
23.10.2014 16:16 14,9 C 13,3 C 78 % 1022,6 hPa 0,0 l/m 0 min 0 min 135 W/m 14,6 km/h (3 Bft)
23.10.2014 16:18 14,9 C 13,3 C 79 % 1022,5 hPa 0,0 l/m 0 min 0 min 130 W/m 12,6 km/h (3 Bft)
23.10.2014 16:20 14,9 C 13,3 C 79 % 1022,5 hPa 0,0 l/m 0 min 0 min 124 W/m 12,6 km/h (3 Bft)
23.10.2014 16:22 14,8 C 13,3 C 79 % 1022,5 hPa 0,0 l/m 0 min 0 min 128 W/m 14,6 km/h (3 Bft)
23.10.2014 16:24 14,8 C 13,3 C 79 % 1022,5 hPa 0,0 l/m 0 min 0 min 131 W/m 12,6 km/h (3 Bft)
23.10.2014 16:26 14,8 C 13,3 C 79 % 1022,4 hPa 0,0 l/m 0 min 0 min 127 W/m 14,6 km/h (3 Bft)
23.10.2014 16:28 14,7 C 13,3 C 79 % 1022,4 hPa 0,0 l/m 0 min 0 min 122 W/m 14,6 km/h (3 Bft)
23.10.2014 16:30 14,7 C 13,3 C 79 % 1022,4 hPa 0,0 l/m 0 min 0 min 117 W/m 10,5 km/h (2 Bft)
23.10.2014 16:32 14,7 C 13,3 C 79 % 1022,5 hPa 0,0 l/m 0 min 0 min 117 W/m 14,6 km/h (3 Bft)
23.10.2014 16:34 14,6 C 12,8 C 79 % 1022,5 hPa 0,0 l/m 0 min 0 min 117 W/m 14,6 km/h (3 Bft)
23.10.2014 16:36 14,6 C 12,8 C 80 % 1022,5 hPa 0,0 l/m 0 min 0 min 109 W/m 14,6 km/h (3 Bft)
23.10.2014 16:38 14,5 C 12,8 C 79 % 1022,4 hPa 0,0 l/m 0 min 0 min 100 W/m 16,7 km/h (3 Bft)
23.10.2014 16:40 14,4 C 12,8 C 79 % 1022,4 hPa 0,0 l/m 0 min 0 min 93 W/m 18,8 km/h (3 Bft)
23.10.2014 16:42 14,4 C 12,8 C 79 % 1022,4 hPa 0,0 l/m 0 min 0 min 86 W/m 10,5 km/h (2 Bft)
23.10.2014 16:44 14,3 C 12,8 C 80 % 1022,4 hPa 0,0 l/m 0 min 0 min 80 W/m 12,6 km/h (3 Bft)
23.10.2014 16:46 14,3 C 12,8 C 80 % 1022,5 hPa 0,0 l/m 0 min 0 min 74 W/m 12,6 km/h (3 Bft)
23.10.2014 16:48 14,3 C 12,8 C 80 % 1022,4 hPa 0,0 l/m 0 min 0 min 68 W/m 12,6 km/h (3 Bft)
23.10.2014 16:50 14,2 C 12,8 C 80 % 1022,4 hPa 0,0 l/m 0 min 0 min 64 W/m 12,6 km/h (3 Bft)
23.10.2014 16:52 14,2 C 12,8 C 81 % 1022,4 hPa 0,0 l/m 0 min 0 min 64 W/m 12,6 km/h (3 Bft)
23.10.2014 16:54 14,2 C 12,8 C 81 % 1022,4 hPa 0,0 l/m 0 min 0 min 67 W/m 12,6 km/h (3 Bft)
23.10.2014 16:56 14,2 C 12,8 C 81 % 1022,3 hPa 0,0 l/m 0 min 0 min 65 W/m 10,5 km/h (2 Bft)
23.10.2014 16:58 14,2 C 12,2 C 81 % 1022,3 hPa 0,0 l/m 0 min 0 min 61 W/m 16,7 km/h (3 Bft)
23.10.2014 17:00 14,2 C 12,2 C 81 % 1022,2 hPa 0,0 l/m 0 min 0 min 54 W/m 14,6 km/h (3 Bft)
23.10.2014 17:02 14,1 C 12,2 C 81 % 1022,2 hPa 0,0 l/m 0 min 0 min 47 W/m 12,6 km/h (3 Bft)
23.10.2014 17:04 14,1 C 12,2 C 81 % 1022,2 hPa 0,0 l/m 0 min 0 min 42 W/m 16,7 km/h (3 Bft)
23.10.2014 17:06 14,0 C 12,2 C 81 % 1022,2 hPa 0,0 l/m 0 min 0 min 39 W/m 12,6 km/h (3 Bft)
23.10.2014 17:08 13,9 C 12,2 C 82 % 1022,1 hPa 0,0 l/m 0 min 0 min 35 W/m 14,6 km/h (3 Bft)
23.10.2014 17:10 13,9 C 12,2 C 82 % 1022,2 hPa 0,0 l/m 0 min 0 min 30 W/m 16,7 km/h (3 Bft)
23.10.2014 17:12 13,8 C 12,2 C 82 % 1022,2 hPa 0,0 l/m 0 min 0 min 27 W/m 20,9 km/h (4 Bft)
23.10.2014 17:14 13,8 C 12,2 C 82 % 1022,2 hPa 0,0 l/m 0 min 0 min 27 W/m 16,7 km/h (3 Bft)
23.10.2014 17:16 13,8 C 12,2 C 82 % 1022,1 hPa 0,0 l/m 0 min 0 min 29 W/m 14,6 km/h (3 Bft)
23.10.2014 17:18 13,7 C 12,2 C 82 % 1022,2 hPa 0,0 l/m 0 min 0 min 31 W/m 10,5 km/h (2 Bft)
23.10.2014 17:20 13,7 C 12,2 C 82 % 1022,1 hPa 0,0 l/m 0 min 0 min 34 W/m 10,5 km/h (2 Bft)
23.10.2014 17:22 13,7 C 12,2 C 82 % 1022,1 hPa 0,0 l/m 0 min 0 min 39 W/m 10,5 km/h (2 Bft)
23.10.2014 17:24 13,7 C 12,2 C 82 % 1022,1 hPa 0,0 l/m 0 min 0 min 40 W/m 6,3 km/h (2 Bft)
23.10.2014 17:26 13,7 C 12,2 C 83 % 1022,1 hPa 0,0 l/m 0 min 0 min 40 W/m 14,6 km/h (3 Bft)
23.10.2014 17:28 13,6 C 12,2 C 83 % 1022,1 hPa 0,0 l/m 0 min 0 min 40 W/m 10,5 km/h (2 Bft)
23.10.2014 17:30 13,6 C 12,2 C 83 % 1022,0 hPa 0,0 l/m 0 min 0 min 34 W/m 12,6 km/h (3 Bft)
23.10.2014 17:32 13,6 C 12,2 C 83 % 1022,0 hPa 0,0 l/m 0 min 0 min 30 W/m 14,6 km/h (3 Bft)
23.10.2014 17:34 13,6 C 11,7 C 83 % 1022,1 hPa 0,0 l/m 0 min 0 min 25 W/m 14,6 km/h (3 Bft)
23.10.2014 17:36 13,5 C 11,7 C 83 % 1022,0 hPa 0,0 l/m 0 min 0 min 18 W/m 12,6 km/h (3 Bft)
23.10.2014 17:38 13,5 C 11,7 C 83 % 1022,1 hPa 0,0 l/m 0 min 0 min 14 W/m 14,6 km/h (3 Bft)
23.10.2014 17:40 13,5 C 11,7 C 83 % 1022,0 hPa 0,0 l/m 0 min 0 min 14 W/m 14,6 km/h (3 Bft)
23.10.2014 17:42 13,4 C 11,7 C 83 % 1022,0 hPa 0,0 l/m 0 min 0 min 14 W/m 18,8 km/h (3 Bft)
23.10.2014 17:44 13,4 C 11,7 C 83 % 1022,0 hPa 0,0 l/m 0 min 0 min 14 W/m 20,9 km/h (4 Bft)
23.10.2014 17:46 13,4 C 11,7 C 83 % 1022,0 hPa 0,0 l/m 0 min 0 min 14 W/m 16,7 km/h (3 Bft)
23.10.2014 17:48 13,3 C 11,7 C 83 % 1022,0 hPa 0,0 l/m 0 min 0 min 12 W/m 12,6 km/h (3 Bft)
23.10.2014 17:50 13,3 C 11,7 C 83 % 1022,0 hPa 0,0 l/m 0 min 0 min 11 W/m 8,4 km/h (2 Bft)
23.10.2014 17:52 13,3 C 11,7 C 83 % 1021,9 hPa 0,0 l/m 0 min 0 min 11 W/m 12,6 km/h (3 Bft)
23.10.2014 17:54 13,3 C 11,7 C 84 % 1021,9 hPa 0,0 l/m 0 min 0 min 11 W/m 10,5 km/h (2 Bft)
23.10.2014 17:56 13,3 C 11,7 C 84 % 1021,9 hPa 0,0 l/m 0 min 0 min 11 W/m 14,6 km/h (3 Bft)
23.10.2014 17:58 13,2 C 11,7 C 84 % 1021,9 hPa 0,0 l/m 0 min 0 min 9 W/m 8,4 km/h (2 Bft)
23.10.2014 18:00 13,2 C 11,7 C 84 % 1021,9 hPa 0,0 l/m 0 min 0 min 9 W/m 8,4 km/h (2 Bft)
23.10.2014 18:02 13,2 C 11,7 C 84 % 1021,9 hPa 0,0 l/m 0 min 0 min 11 W/m 14,6 km/h (3 Bft)
23.10.2014 18:05 13,2 C 11,7 C 84 % 1021,8 hPa 0,0 l/m 0 min 0 min 11 W/m 12,6 km/h (3 Bft)
23.10.2014 18:06 13,2 C 11,7 C 84 % 1021,8 hPa 0,0 l/m 0 min 0 min 9 W/m 10,5 km/h (2 Bft)
23.10.2014 18:08 13,2 C 11,7 C 84 % 1021,8 hPa 0,0 l/m 0 min 0 min 8 W/m 14,6 km/h (3 Bft)
23.10.2014 18:10 13,2 C 11,7 C 84 % 1021,9 hPa 0,0 l/m 0 min 0 min 7 W/m 10,5 km/h (2 Bft)
23.10.2014 18:12 13,1 C 11,7 C 84 % 1021,9 hPa 0,0 l/m 0 min 0 min 7 W/m 16,7 km/h (3 Bft)
23.10.2014 18:14 13,1 C 11,7 C 84 % 1021,9 hPa 0,0 l/m 0 min 0 min 7 W/m 16,7 km/h (3 Bft)
23.10.2014 18:16 13,1 C 11,7 C 84 % 1021,9 hPa 0,0 l/m 0 min 0 min 6 W/m 12,6 km/h (3 Bft)
23.10.2014 18:18 13,1 C 11,7 C 84 % 1021,9 hPa 0,0 l/m 0 min 0 min 5 W/m 8,4 km/h (2 Bft)
23.10.2014 18:20 13,1 C 11,7 C 84 % 1021,9 hPa 0,0 l/m 0 min 0 min 3 W/m 12,6 km/h (3 Bft)
23.10.2014 18:22 13,1 C 11,7 C 84 % 1021,9 hPa 0,0 l/m 0 min 0 min 0 W/m 18,8 km/h (3 Bft)
23.10.2014 18:24 13,1 C 11,7 C 85 % 1022,0 hPa 0,0 l/m 0 min 0 min 0 W/m 8,4 km/h (2 Bft)
23.10.2014 18:26 13,1 C 11,7 C 85 % 1022,0 hPa 0,0 l/m 0 min 0 min 0 W/m 6,3 km/h (2 Bft)
23.10.2014 18:28 13,0 C 11,7 C 85 % 1022,0 hPa 0,0 l/m 0 min 0 min 0 W/m 14,6 km/h (3 Bft)
23.10.2014 18:30 13,0 C 11,7 C 85 % 1021,9 hPa 0,0 l/m 0 min 0 min 0 W/m 10,5 km/h (2 Bft)
23.10.2014 18:32 13,0 C 11,7 C 85 % 1022,0 hPa 0,0 l/m 0 min 0 min 0 W/m 12,6 km/h (3 Bft)
23.10.2014 18:34 13,0 C 11,7 C 85 % 1021,9 hPa 0,0 l/m 0 min 0 min 0 W/m 14,6 km/h (3 Bft)
23.10.2014 18:36 13,0 C 11,7 C 85 % 1022,0 hPa 0,0 l/m 0 min 0 min 0 W/m 12,6 km/h (3 Bft)
23.10.2014 18:38 12,9 C 11,7 C 85 % 1021,9 hPa 0,0 l/m 0 min 0 min 0 W/m 8,4 km/h (2 Bft)
23.10.2014 18:40 12,9 C 11,7 C 85 % 1022,0 hPa 0,0 l/m 0 min 0 min 0 W/m 10,5 km/h (2 Bft)
23.10.2014 18:42 12,9 C 11,7 C 85 % 1022,0 hPa 0,0 l/m 0 min 0 min 0 W/m 14,6 km/h (3 Bft)
23.10.2014 18:44 12,9 C 11,7 C 85 % 1022,0 hPa 0,0 l/m 0 min 0 min 0 W/m 14,6 km/h (3 Bft)
23.10.2014 18:46 12,9 C 11,7 C 85 % 1022,0 hPa 0,0 l/m 0 min 0 min 0 W/m 12,6 km/h (3 Bft)
23.10.2014 18:48 12,9 C 11,7 C 85 % 1022,0 hPa 0,0 l/m 0 min 0 min 0 W/m 6,3 km/h (2 Bft)
23.10.2014 18:50 12,9 C 11,1 C 85 % 1022,0 hPa 0,0 l/m 0 min 0 min 0 W/m 10,5 km/h (2 Bft)
23.10.2014 18:52 12,9 C 11,1 C 85 % 1022,0 hPa 0,0 l/m 0 min 0 min 0 W/m 12,6 km/h (3 Bft)
23.10.2014 18:54 12,9 C 11,1 C 85 % 1021,9 hPa 0,0 l/m 0 min 0 min 0 W/m 10,5 km/h (2 Bft)
23.10.2014 18:56 12,8 C 11,1 C 85 % 1021,9 hPa 0,0 l/m 0 min 0 min 0 W/m 10,5 km/h (2 Bft)
23.10.2014 18:58 12,8 C 11,1 C 86 % 1021,9 hPa 0,0 l/m 0 min 0 min 0 W/m 12,6 km/h (3 Bft)
23.10.2014 19:00 12,8 C 11,1 C 86 % 1022,0 hPa 0,0 l/m 0 min 0 min 0 W/m 10,5 km/h (2 Bft)
23.10.2014 19:02 12,8 C 11,1 C 86 % 1022,0 hPa 0,0 l/m 0 min 0 min 0 W/m 14,6 km/h (3 Bft)
23.10.2014 19:04 12,8 C 11,1 C 86 % 1022,0 hPa 0,0 l/m 0 min 0 min 0 W/m 10,5 km/h (2 Bft)
23.10.2014 19:06 12,8 C 11,1 C 86 % 1022,0 hPa 0,0 l/m 0 min 0 min 0 W/m 10,5 km/h (2 Bft)
23.10.2014 19:08 12,8 C 11,1 C 86 % 1022,0 hPa 0,0 l/m 0 min 0 min 0 W/m 10,5 km/h (2 Bft)
23.10.2014 19:10 12,8 C 11,1 C 86 % 1022,0 hPa 0,0 l/m 0 min 0 min 0 W/m 6,3 km/h (2 Bft)
23.10.2014 19:12 12,8 C 11,1 C 86 % 1021,9 hPa 0,0 l/m 0 min 0 min 0 W/m 10,5 km/h (2 Bft)
23.10.2014 19:14 12,8 C 11,1 C 86 % 1021,9 hPa 0,0 l/m 0 min 0 min 0 W/m 8,4 km/h (2 Bft)
23.10.2014 19:16 12,7 C 11,1 C 86 % 1022,0 hPa 0,0 l/m 0 min 0 min 0 W/m 20,9 km/h (4 Bft)
23.10.2014 19:18 12,7 C 11,1 C 86 % 1022,0 hPa 0,0 l/m 0 min 0 min 0 W/m 18,8 km/h (3 Bft)
23.10.2014 19:20 12,7 C 11,1 C 86 % 1022,0 hPa 0,0 l/m 0 min 0 min 0 W/m 12,6 km/h (3 Bft)
23.10.2014 19:22 12,7 C 11,1 C 86 % 1022,0 hPa 0,0 l/m 0 min 0 min 0 W/m 10,5 km/h (2 Bft)
23.10.2014 19:24 12,7 C 11,1 C 86 % 1022,0 hPa 0,0 l/m 0 min 0 min 0 W/m 10,5 km/h (2 Bft)
23.10.2014 19:26 12,7 C 11,1 C 86 % 1022,0 hPa 0,0 l/m 0 min 0 min 0 W/m 8,4 km/h (2 Bft)
23.10.2014 19:28 12,7 C 11,1 C 86 % 1022,1 hPa 0,0 l/m 0 min 0 min 0 W/m 16,7 km/h (3 Bft)
23.10.2014 19:30 12,7 C 11,1 C 86 % 1022,1 hPa 0,0 l/m 0 min 0 min 0 W/m 8,4 km/h (2 Bft)
23.10.2014 19:32 12,7 C 11,1 C 86 % 1022,0 hPa 0,0 l/m 0 min 0 min 0 W/m 6,3 km/h (2 Bft)
23.10.2014 19:34 12,7 C 11,1 C 86 % 1022,0 hPa 0,0 l/m 0 min 0 min 0 W/m 8,4 km/h (2 Bft)
23.10.2014 19:36 12,7 C 11,1 C 86 % 1022,1 hPa 0,0 l/m 0 min 0 min 0 W/m 8,4 km/h (2 Bft)
23.10.2014 19:38 12,7 C 11,1 C 86 % 1022,1 hPa 0,0 l/m 0 min 0 min 0 W/m 10,5 km/h (2 Bft)
23.10.2014 19:40 12,7 C 11,1 C 86 % 1022,1 hPa 0,0 l/m 0 min 0 min 0 W/m 10,5 km/h (2 Bft)
23.10.2014 19:42 12,7 C 11,1 C 86 % 1022,0 hPa 0,0 l/m 0 min 0 min 0 W/m 12,6 km/h (3 Bft)
23.10.2014 19:44 12,7 C 11,1 C 87 % 1022,1 hPa 0,0 l/m 0 min 0 min 0 W/m 12,6 km/h (3 Bft)
23.10.2014 19:46 12,7 C 11,1 C 87 % 1022,1 hPa 0,0 l/m 0 min 0 min 0 W/m 12,6 km/h (3 Bft)
23.10.2014 19:48 12,7 C 11,1 C 87 % 1022,1 hPa 0,0 l/m 0 min 0 min 0 W/m 10,5 km/h (2 Bft)
23.10.2014 19:50 12,7 C 11,1 C 87 % 1022,1 hPa 0,0 l/m 0 min 0 min 0 W/m 14,6 km/h (3 Bft)
23.10.2014 19:52 12,7 C 11,1 C 87 % 1022,1 hPa 0,0 l/m 0 min 0 min 0 W/m 14,6 km/h (3 Bft)
23.10.2014 19:54 12,6 C 11,1 C 87 % 1022,1 hPa 0,0 l/m 0 min 0 min 0 W/m 12,6 km/h (3 Bft)
23.10.2014 19:56 12,7 C 11,1 C 87 % 1022,1 hPa 0,0 l/m 0 min 0 min 0 W/m 14,6 km/h (3 Bft)
23.10.2014 19:58 12,6 C 11,1 C 87 % 1022,1 hPa 0,0 l/m 0 min 0 min 0 W/m 14,6 km/h (3 Bft)
23.10.2014 20:00 12,6 C 11,1 C 87 % 1022,1 hPa 0,0 l/m 0 min 0 min 0 W/m 18,8 km/h (3 Bft)
23.10.2014 20:02 12,6 C 11,1 C 87 % 1022,1 hPa 0,0 l/m 0 min 0 min 0 W/m 10,5 km/h (2 Bft)
23.10.2014 20:04 12,6 C 11,1 C 87 % 1022,1 hPa 0,0 l/m 0 min 0 min 0 W/m 14,6 km/h (3 Bft)
23.10.2014 20:06 12,6 C 11,1 C 87 % 1022,1 hPa 0,0 l/m 0 min 0 min 0 W/m 16,7 km/h (3 Bft)
23.10.2014 20:08 12,6 C 11,1 C 87 % 1022,2 hPa 0,0 l/m 0 min 0 min 0 W/m 10,5 km/h (2 Bft)
23.10.2014 20:10 12,6 C 11,1 C 87 % 1022,2 hPa 0,0 l/m 0 min 0 min 0 W/m 8,4 km/h (2 Bft)
23.10.2014 20:12 12,6 C 11,1 C 87 % 1022,2 hPa 0,0 l/m 0 min 0 min 0 W/m 10,5 km/h (2 Bft)
23.10.2014 20:14 12,6 C 11,1 C 87 % 1022,2 hPa 0,0 l/m 0 min 0 min 0 W/m 14,6 km/h (3 Bft)
23.10.2014 20:16 12,6 C 11,1 C 87 % 1022,2 hPa 0,0 l/m 0 min 0 min 0 W/m 12,6 km/h (3 Bft)
23.10.2014 20:18 12,6 C 11,1 C 87 % 1022,2 hPa 0,0 l/m 0 min 0 min 0 W/m 12,6 km/h (3 Bft)
23.10.2014 20:20 12,6 C 11,1 C 87 % 1022,1 hPa 0,0 l/m 0 min 0 min 0 W/m 12,6 km/h (3 Bft)
23.10.2014 20:22 12,6 C 11,1 C 87 % 1022,1 hPa 0,0 l/m 0 min 0 min 0 W/m 8,4 km/h (2 Bft)
23.10.2014 20:24 12,6 C 11,1 C 87 % 1022,2 hPa 0,0 l/m 0 min 0 min 0 W/m 12,6 km/h (3 Bft)
23.10.2014 20:26 12,6 C 11,1 C 87 % 1022,2 hPa 0,0 l/m 0 min 0 min 0 W/m 8,4 km/h (2 Bft)
23.10.2014 20:28 12,5 C 11,1 C 87 % 1022,1 hPa 0,0 l/m 0 min 0 min 0 W/m 12,6 km/h (3 Bft)
23.10.2014 20:30 12,5 C 11,1 C 87 % 1022,1 hPa 0,0 l/m 0 min 0 min 0 W/m 10,5 km/h (2 Bft)
23.10.2014 20:32 12,5 C 11,1 C 87 % 1022,1 hPa 0,0 l/m 0 min 0 min 0 W/m 18,8 km/h (3 Bft)
23.10.2014 20:34 12,5 C 11,1 C 87 % 1022,1 hPa 0,0 l/m 0 min 0 min 0 W/m 10,5 km/h (2 Bft)
23.10.2014 20:36 12,5 C 11,1 C 87 % 1022,1 hPa 0,0 l/m 0 min 0 min 0 W/m 10,5 km/h (2 Bft)
23.10.2014 20:38 12,5 C 11,1 C 87 % 1022,1 hPa 0,0 l/m 0 min 0 min 0 W/m 12,6 km/h (3 Bft)
23.10.2014 20:40 12,5 C 11,1 C 87 % 1022,1 hPa 0,0 l/m 0 min 0 min 0 W/m 12,6 km/h (3 Bft)
23.10.2014 20:42 12,5 C 11,1 C 87 % 1022,1 hPa 0,0 l/m 0 min 0 min 0 W/m 12,6 km/h (3 Bft)
23.10.2014 20:44 12,4 C 11,1 C 87 % 1022,1 hPa 0,0 l/m 0 min 0 min 0 W/m 12,6 km/h (3 Bft)
23.10.2014 20:46 12,4 C 11,1 C 87 % 1022,2 hPa 0,0 l/m 0 min 0 min 0 W/m 18,8 km/h (3 Bft)
23.10.2014 20:48 12,4 C 11,1 C 87 % 1022,2 hPa 0,0 l/m 0 min 0 min 0 W/m 18,8 km/h (3 Bft)
23.10.2014 20:50 12,4 C 11,1 C 87 % 1022,2 hPa 0,0 l/m 0 min 0 min 0 W/m 8,4 km/h (2 Bft)
23.10.2014 20:52 12,4 C 11,1 C 87 % 1022,2 hPa 0,0 l/m 0 min 0 min 0 W/m 8,4 km/h (2 Bft)
23.10.2014 20:54 12,4 C 11,1 C 87 % 1022,2 hPa 0,0 l/m 0 min 0 min 0 W/m 12,6 km/h (3 Bft)
23.10.2014 20:56 12,4 C 11,1 C 87 % 1022,2 hPa 0,0 l/m 0 min 0 min 0 W/m 14,6 km/h (3 Bft)
23.10.2014 20:58 12,4 C 11,1 C 87 % 1022,2 hPa 0,0 l/m 0 min 0 min 0 W/m 12,6 km/h (3 Bft)
23.10.2014 21:00 12,4 C 11,1 C 87 % 1022,3 hPa 0,0 l/m 0 min 0 min 0 W/m 16,7 km/h (3 Bft)
23.10.2014 21:02 12,4 C 11,1 C 87 % 1022,3 hPa 0,0 l/m 0 min 0 min 0 W/m 12,6 km/h (3 Bft)
23.10.2014 21:04 12,4 C 11,1 C 87 % 1022,4 hPa 0,0 l/m 0 min 0 min 0 W/m 10,5 km/h (2 Bft)
23.10.2014 21:06 12,4 C 11,1 C 87 % 1022,4 hPa 0,0 l/m 0 min 0 min 0 W/m 12,6 km/h (3 Bft)
23.10.2014 21:08 12,4 C 11,1 C 87 % 1022,3 hPa 0,0 l/m 0 min 0 min 0 W/m 8,4 km/h (2 Bft)
23.10.2014 21:10 12,4 C 11,1 C 88 % 1022,2 hPa 0,0 l/m 0 min 0 min 0 W/m 8,4 km/h (2 Bft)
23.10.2014 21:12 12,4 C 11,1 C 88 % 1022,1 hPa 0,0 l/m 0 min 0 min 0 W/m 12,6 km/h (3 Bft)
23.10.2014 21:14 12,4 C 11,1 C 88 % 1022,2 hPa 0,0 l/m 0 min 0 min 0 W/m 8,4 km/h (2 Bft)
23.10.2014 21:16 12,4 C 11,1 C 88 % 1022,2 hPa 0,0 l/m 0 min 0 min 0 W/m 8,4 km/h (2 Bft)
23.10.2014 21:18 12,4 C 11,1 C 88 % 1022,2 hPa 0,0 l/m 0 min 0 min 0 W/m 8,4 km/h (2 Bft)
23.10.2014 21:20 12,4 C 11,1 C 88 % 1022,2 hPa 0,0 l/m 0 min 0 min 0 W/m 10,5 km/h (2 Bft)
23.10.2014 21:22 12,3 C 11,1 C 88 % 1022,2 hPa 0,0 l/m 0 min 0 min 0 W/m 12,6 km/h (3 Bft)
23.10.2014 21:24 12,3 C 11,1 C 88 % 1022,2 hPa 0,0 l/m 0 min 0 min 0 W/m 10,5 km/h (2 Bft)
23.10.2014 21:26 12,3 C 11,1 C 88 % 1022,3 hPa 0,0 l/m 0 min 0 min 0 W/m 12,6 km/h (3 Bft)
23.10.2014 21:28 12,3 C 11,1 C 88 % 1022,3 hPa 0,0 l/m 0 min 0 min 0 W/m 14,6 km/h (3 Bft)
23.10.2014 21:30 12,3 C 11,1 C 88 % 1022,2 hPa 0,0 l/m 0 min 0 min 0 W/m 16,7 km/h (3 Bft)
23.10.2014 21:32 12,3 C 11,1 C 88 % 1022,3 hPa 0,0 l/m 0 min 0 min 0 W/m 12,6 km/h (3 Bft)
23.10.2014 21:34 12,3 C 11,1 C 88 % 1022,3 hPa 0,0 l/m 0 min 0 min 0 W/m 14,6 km/h (3 Bft)
23.10.2014 21:36 12,3 C 11,1 C 88 % 1022,4 hPa 0,0 l/m 0 min 0 min 0 W/m 10,5 km/h (2 Bft)
23.10.2014 21:38 12,3 C 11,1 C 88 % 1022,4 hPa 0,0 l/m 0 min 0 min 0 W/m 12,6 km/h (3 Bft)
23.10.2014 21:40 12,3 C 11,1 C 88 % 1022,4 hPa 0,0 l/m 0 min 0 min 0 W/m 8,4 km/h (2 Bft)
23.10.2014 21:42 12,3 C 11,1 C 88 % 1022,4 hPa 0,0 l/m 0 min 0 min 0 W/m 14,6 km/h (3 Bft)
23.10.2014 21:44 12,3 C 11,1 C 88 % 1022,5 hPa 0,0 l/m 0 min 0 min 0 W/m 10,5 km/h (2 Bft)
23.10.2014 21:46 12,3 C 11,1 C 88 % 1022,4 hPa 0,0 l/m 0 min 0 min 0 W/m 12,6 km/h (3 Bft)
23.10.2014 21:48 12,2 C 11,1 C 88 % 1022,4 hPa 0,0 l/m 0 min 0 min 0 W/m 16,7 km/h (3 Bft)
23.10.2014 21:50 12,2 C 11,1 C 88 % 1022,5 hPa 0,0 l/m 0 min 0 min 0 W/m 10,5 km/h (2 Bft)
23.10.2014 21:52 12,2 C 11,1 C 88 % 1022,5 hPa 0,0 l/m 0 min 0 min 0 W/m 14,6 km/h (3 Bft)
23.10.2014 21:54 12,2 C 11,1 C 88 % 1022,5 hPa 0,0 l/m 0 min 0 min 0 W/m 16,7 km/h (3 Bft)
23.10.2014 21:56 12,2 C 11,1 C 88 % 1022,5 hPa 0,0 l/m 0 min 0 min 0 W/m 6,3 km/h (2 Bft)
23.10.2014 21:58 12,2 C 11,1 C 88 % 1022,5 hPa 0,0 l/m 0 min 0 min 0 W/m 10,5 km/h (2 Bft)
23.10.2014 22:00 12,2 C 11,1 C 88 % 1022,5 hPa 0,0 l/m 0 min 0 min 0 W/m 10,5 km/h (2 Bft)
23.10.2014 22:02 12,2 C 11,1 C 88 % 1022,6 hPa 0,0 l/m 0 min 0 min 0 W/m 12,6 km/h (3 Bft)
23.10.2014 22:04 12,2 C 11,1 C 88 % 1022,5 hPa 0,0 l/m 0 min 0 min 0 W/m 10,5 km/h (2 Bft)
23.10.2014 22:06 12,2 C 11,1 C 88 % 1022,5 hPa 0,0 l/m 0 min 0 min 0 W/m 8,4 km/h (2 Bft)
23.10.2014 22:08 12,2 C 11,1 C 88 % 1022,6 hPa 0,0 l/m 0 min 0 min 0 W/m 8,4 km/h (2 Bft)
23.10.2014 22:10 12,2 C 11,1 C 88 % 1022,6 hPa 0,0 l/m 0 min 0 min 0 W/m 10,5 km/h (2 Bft)
23.10.2014 22:12 12,2 C 10,6 C 88 % 1022,6 hPa 0,0 l/m 0 min 0 min 0 W/m 12,6 km/h (3 Bft)
23.10.2014 22:14 12,2 C 10,6 C 88 % 1022,7 hPa 0,0 l/m 0 min 0 min 0 W/m 12,6 km/h (3 Bft)
23.10.2014 22:16 12,2 C 11,1 C 89 % 1022,5 hPa 0,0 l/m 0 min 0 min 0 W/m 12,6 km/h (3 Bft)
23.10.2014 22:18 12,1 C 11,1 C 89 % 1022,6 hPa 0,0 l/m 0 min 0 min 0 W/m 12,6 km/h (3 Bft)
23.10.2014 22:20 12,1 C 11,1 C 89 % 1022,5 hPa 0,0 l/m 0 min 0 min 0 W/m 14,6 km/h (3 Bft)
23.10.2014 22:22 12,1 C 11,1 C 89 % 1022,5 hPa 0,0 l/m 0 min 0 min 0 W/m 14,6 km/h (3 Bft)
23.10.2014 22:24 12,1 C 11,1 C 89 % 1022,6 hPa 0,0 l/m 0 min 0 min 0 W/m 16,7 km/h (3 Bft)
23.10.2014 22:26 12,1 C 11,1 C 89 % 1022,7 hPa 0,0 l/m 0 min 0 min 0 W/m 12,6 km/h (3 Bft)
23.10.2014 22:28 12,1 C 11,1 C 89 % 1022,6 hPa 0,0 l/m 0 min 0 min 0 W/m 12,6 km/h (3 Bft)
23.10.2014 22:30 12,1 C 11,1 C 89 % 1022,6 hPa 0,0 l/m 0 min 0 min 0 W/m 10,5 km/h (2 Bft)
23.10.2014 22:32 12,1 C 10,6 C 89 % 1022,6 hPa 0,0 l/m 0 min 0 min 0 W/m 18,8 km/h (3 Bft)
23.10.2014 22:34 12,1 C 10,6 C 89 % 1022,6 hPa 0,0 l/m 0 min 0 min 0 W/m 14,6 km/h (3 Bft)
23.10.2014 22:36 12,1 C 10,6 C 89 % 1022,6 hPa 0,0 l/m 0 min 0 min 0 W/m 10,5 km/h (2 Bft)
23.10.2014 22:38 12,1 C 10,6 C 89 % 1022,5 hPa 0,0 l/m 0 min 0 min 0 W/m 10,5 km/h (2 Bft)
23.10.2014 22:40 12,1 C 10,6 C 89 % 1022,6 hPa 0,0 l/m 0 min 0 min 0 W/m 10,5 km/h (2 Bft)
23.10.2014 22:42 12,1 C 10,6 C 89 % 1022,6 hPa 0,0 l/m 0 min 0 min 0 W/m 8,4 km/h (2 Bft)
23.10.2014 22:44 12,1 C 10,6 C 89 % 1022,6 hPa 0,0 l/m 0 min 0 min 0 W/m 6,3 km/h (2 Bft)
23.10.2014 22:46 12,1 C 10,6 C 89 % 1022,5 hPa 0,0 l/m 0 min 0 min 0 W/m 8,4 km/h (2 Bft)
23.10.2014 22:48 12,1 C 10,6 C 89 % 1022,5 hPa 0,0 l/m 0 min 0 min 0 W/m 8,4 km/h (2 Bft)
23.10.2014 22:50 12,1 C 10,6 C 89 % 1022,5 hPa 0,0 l/m 0 min 0 min 0 W/m 8,4 km/h (2 Bft)
23.10.2014 22:52 12,1 C 10,6 C 89 % 1022,4 hPa 0,0 l/m 0 min 0 min 0 W/m 8,4 km/h (2 Bft)
23.10.2014 22:54 12,0 C 10,6 C 89 % 1022,4 hPa 0,0 l/m 0 min 0 min 0 W/m 12,6 km/h (3 Bft)
23.10.2014 22:56 12,0 C 10,6 C 89 % 1022,4 hPa 0,0 l/m 0 min 0 min 0 W/m 10,5 km/h (2 Bft)
23.10.2014 22:58 12,0 C 10,6 C 89 % 1022,4 hPa 0,0 l/m 0 min 0 min 0 W/m 8,4 km/h (2 Bft)
23.10.2014 23:00 12,0 C 10,6 C 89 % 1022,4 hPa 0,0 l/m 0 min 0 min 0 W/m 14,6 km/h (3 Bft)
23.10.2014 23:02 12,0 C 10,6 C 89 % 1022,4 hPa 0,0 l/m 0 min 0 min 0 W/m 10,5 km/h (2 Bft)
23.10.2014 23:04 12,0 C 10,6 C 89 % 1022,4 hPa 0,0 l/m 0 min 0 min 0 W/m 12,6 km/h (3 Bft)
23.10.2014 23:06 12,0 C 10,6 C 89 % 1022,4 hPa 0,0 l/m 0 min 0 min 0 W/m 14,6 km/h (3 Bft)
23.10.2014 23:08 12,0 C 10,6 C 89 % 1022,4 hPa 0,0 l/m 0 min 0 min 0 W/m 8,4 km/h (2 Bft)
23.10.2014 23:10 11,9 C 10,6 C 89 % 1022,4 hPa 0,0 l/m 0 min 0 min 0 W/m 12,6 km/h (3 Bft)
23.10.2014 23:12 11,9 C 10,6 C 89 % 1022,4 hPa 0,0 l/m 0 min 0 min 0 W/m 10,5 km/h (2 Bft)
23.10.2014 23:14 11,9 C 10,6 C 89 % 1022,4 hPa 0,0 l/m 0 min 0 min 0 W/m 14,6 km/h (3 Bft)
23.10.2014 23:16 11,9 C 10,6 C 88 % 1022,3 hPa 0,0 l/m 0 min 0 min 0 W/m 14,6 km/h (3 Bft)
23.10.2014 23:18 11,9 C 10,6 C 88 % 1022,3 hPa 0,0 l/m 0 min 0 min 0 W/m 10,5 km/h (2 Bft)
23.10.2014 23:20 11,9 C 10,6 C 88 % 1022,3 hPa 0,0 l/m 0 min 0 min 0 W/m 14,6 km/h (3 Bft)
23.10.2014 23:22 11,9 C 10,6 C 88 % 1022,3 hPa 0,0 l/m 0 min 0 min 0 W/m 8,4 km/h (2 Bft)
23.10.2014 23:24 11,9 C 10,6 C 88 % 1022,3 hPa 0,0 l/m 0 min 0 min 0 W/m 12,6 km/h (3 Bft)
23.10.2014 23:26 11,9 C 10,6 C 88 % 1022,3 hPa 0,0 l/m 0 min 0 min 0 W/m 10,5 km/h (2 Bft)
23.10.2014 23:28 11,9 C 10,6 C 88 % 1022,4 hPa 0,0 l/m 0 min 0 min 0 W/m 8,4 km/h (2 Bft)
23.10.2014 23:30 11,9 C 10,6 C 88 % 1022,4 hPa 0,0 l/m 0 min 0 min 0 W/m 8,4 km/h (2 Bft)
23.10.2014 23:32 11,9 C 10,6 C 88 % 1022,3 hPa 0,0 l/m 0 min 0 min 0 W/m 10,5 km/h (2 Bft)
23.10.2014 23:34 11,9 C 10,6 C 89 % 1022,3 hPa 0,0 l/m 0 min 0 min 0 W/m 10,5 km/h (2 Bft)
23.10.2014 23:36 11,8 C 10,6 C 89 % 1022,3 hPa 0,0 l/m 0 min 0 min 0 W/m 12,6 km/h (3 Bft)
23.10.2014 23:38 11,8 C 10,6 C 89 % 1022,4 hPa 0,0 l/m 0 min 0 min 0 W/m 12,6 km/h (3 Bft)
23.10.2014 23:40 11,8 C 10,6 C 89 % 1022,3 hPa 0,0 l/m 0 min 0 min 0 W/m 10,5 km/h (2 Bft)
23.10.2014 23:42 11,8 C 10,6 C 89 % 1022,2 hPa 0,0 l/m 0 min 0 min 0 W/m 12,6 km/h (3 Bft)
23.10.2014 23:44 11,8 C 10,6 C 89 % 1022,3 hPa 0,0 l/m 0 min 0 min 0 W/m 10,5 km/h (2 Bft)
23.10.2014 23:46 11,8 C 10,6 C 89 % 1022,3 hPa 0,0 l/m 0 min 0 min 0 W/m 16,7 km/h (3 Bft)
23.10.2014 23:48 11,8 C 10,6 C 89 % 1022,2 hPa 0,0 l/m 0 min 0 min 0 W/m 23,0 km/h (4 Bft)
23.10.2014 23:50 11,8 C 10,6 C 89 % 1022,2 hPa 0,0 l/m 0 min 0 min 0 W/m 20,9 km/h (4 Bft)
23.10.2014 23:52 11,8 C 10,6 C 89 % 1022,2 hPa 0,0 l/m 0 min 0 min 0 W/m 18,8 km/h (3 Bft)
23.10.2014 23:54 11,8 C 10,6 C 89 % 1022,2 hPa 0,0 l/m 0 min 0 min 0 W/m 16,7 km/h (3 Bft)
23.10.2014 23:56 11,8 C 10,6 C 89 % 1022,2 hPa 0,0 l/m 0 min 0 min 0 W/m 8,4 km/h (2 Bft)
23.10.2014 23:58 11,7 C 10,6 C 89 % 1022,2 hPa 0,0 l/m 0 min 0 min 0 W/m 16,7 km/h (3 Bft)
_ Min-Zeit 02:02 01:28 15:42 18:05 - - - - 03:34
Minimum _ 8,1 C 6,7 C 77 % 1021,8 hPa - - - - 2,1 km/h (1 Bft)
_ Max-Zeit 15:48 15:08 02:30 12:02 00:00 08:40 00:00 15:12 14:14
Maximum _ 15,5 C 14,4 C 94 % 1023,7 hPa 0,0 l/m 2 min 0 min 581 W/m 29,3 km/h
SW (5 Bft)
Durchschnitt _ 11,1 C 10,1 C 89 % 1022,5 hPa #0,0 l/m #2:08 h #0 min. 140 W/m 11,9 km/h (2 Bft)
© 2014 W. Hausmann